<?xml version="1.0" encoding="UTF-8" standalone="no" ?>
<gpx xmlns="http://www.topografix.com/GPX/1/1" xmlns:xsi="http://www.w3.org/2001/XMLSchema-instance" xsi:schemaLocation="http://www.topografix.com/GPX/1/1 http://www.topografix.com/GPX/1/1/gpx.xsd" version="1.1" creator="VisuGPX - https://www.visugpx.com">
  <metadata>
    <name>Vélo - Brétignolles - St-Gilles-Croix-de-Vie 26/05/2022</name>
  </metadata>
  <trk>
    <name><![CDATA[Vélo - Brétignolles - St-Gilles-Croix-de-Vie 26/05/2022]]></name>
    <extensions>
      <line xmlns="http://www.topografix.com/GPX/gpx_style/0/2">
        <color>0000FF</color>
        <width>4</width>
          <extensions>
            <sens>1</sens>
          </extensions>
      </line>
    </extensions>
    <trkseg>
      <trkpt lat="46.63672" lon="-1.87662">
        <ele>25.269906358782</ele>
        <time>2022-05-26T11:58:03Z</time>
      </trkpt>
      <trkpt lat="46.63664" lon="-1.87682">
        <ele>11.269295745424</ele>
        <time>2022-05-26T11:59:14Z</time>
      </trkpt>
      <trkpt lat="46.63652" lon="-1.87711">
        <ele>14.268435994329</ele>
        <time>2022-05-26T11:59:23Z</time>
      </trkpt>
      <trkpt lat="46.63656" lon="-1.87735">
        <ele>16.267980267249</ele>
        <time>2022-05-26T11:59:57Z</time>
      </trkpt>
      <trkpt lat="46.63678" lon="-1.87749">
        <ele>19.268105426906</ele>
        <time>2022-05-26T12:00:06Z</time>
      </trkpt>
      <trkpt lat="46.63705" lon="-1.87764">
        <ele>21.26830307458</ele>
        <time>2022-05-26T12:00:15Z</time>
      </trkpt>
      <trkpt lat="46.63711" lon="-1.87789">
        <ele>22.267898655283</ele>
        <time>2022-05-26T12:00:24Z</time>
      </trkpt>
      <trkpt lat="46.63698" lon="-1.87821">
        <ele>23.26690866478</ele>
        <time>2022-05-26T12:00:33Z</time>
      </trkpt>
      <trkpt lat="46.63681" lon="-1.87853">
        <ele>21.265895883442</ele>
        <time>2022-05-26T12:00:42Z</time>
      </trkpt>
      <trkpt lat="46.63664" lon="-1.87883">
        <ele>21.264891855377</ele>
        <time>2022-05-26T12:00:51Z</time>
      </trkpt>
      <trkpt lat="46.63635" lon="-1.87915">
        <ele>17.263643497492</ele>
        <time>2022-05-26T12:01:00Z</time>
      </trkpt>
      <trkpt lat="46.63611" lon="-1.87952">
        <ele>13.262387897821</ele>
        <time>2022-05-26T12:01:09Z</time>
      </trkpt>
      <trkpt lat="46.63604" lon="-1.88">
        <ele>12.261207411521</ele>
        <time>2022-05-26T12:01:18Z</time>
      </trkpt>
      <trkpt lat="46.63599" lon="-1.88038">
        <ele>13.260265883288</ele>
        <time>2022-05-26T12:01:27Z</time>
      </trkpt>
      <trkpt lat="46.63579" lon="-1.88082">
        <ele>12.25894652535</ele>
        <time>2022-05-26T12:01:36Z</time>
      </trkpt>
      <trkpt lat="46.63564" lon="-1.88124">
        <ele>11.257731852153</ele>
        <time>2022-05-26T12:01:45Z</time>
      </trkpt>
      <trkpt lat="46.63546" lon="-1.88178">
        <ele>11.256237488931</ele>
        <time>2022-05-26T12:01:55Z</time>
      </trkpt>
      <trkpt lat="46.6353" lon="-1.88219">
        <ele>10.255029226529</ele>
        <time>2022-05-26T12:02:04Z</time>
      </trkpt>
      <trkpt lat="46.63498" lon="-1.8822">
        <ele>9.2544052060347</ele>
        <time>2022-05-26T12:02:14Z</time>
      </trkpt>
      <trkpt lat="46.63456" lon="-1.88233">
        <ele>9.2533400940645</ele>
        <time>2022-05-26T12:02:23Z</time>
      </trkpt>
      <trkpt lat="46.63415" lon="-1.88269">
        <ele>7.2518004370119</ele>
        <time>2022-05-26T12:02:32Z</time>
      </trkpt>
      <trkpt lat="46.63372" lon="-1.88308">
        <ele>6.2501510036708</ele>
        <time>2022-05-26T12:02:41Z</time>
      </trkpt>
      <trkpt lat="46.63325" lon="-1.88354">
        <ele>7.2483005483096</ele>
        <time>2022-05-26T12:02:51Z</time>
      </trkpt>
      <trkpt lat="46.63284" lon="-1.88393">
        <ele>7.2467098570162</ele>
        <time>2022-05-26T12:03:00Z</time>
      </trkpt>
      <trkpt lat="46.63243" lon="-1.88431">
        <ele>7.2451201698705</ele>
        <time>2022-05-26T12:03:09Z</time>
      </trkpt>
      <trkpt lat="46.63206" lon="-1.88466">
        <ele>5.2437129983531</ele>
        <time>2022-05-26T12:03:19Z</time>
      </trkpt>
      <trkpt lat="46.63209" lon="-1.88491">
        <ele>4.2432465488677</ele>
        <time>2022-05-26T12:03:32Z</time>
      </trkpt>
      <trkpt lat="46.63213" lon="-1.88517">
        <ele>4.2427477008179</ele>
        <time>2022-05-26T12:03:41Z</time>
      </trkpt>
      <trkpt lat="46.63237" lon="-1.88548">
        <ele>1.2425532665427</ele>
        <time>2022-05-26T12:03:51Z</time>
      </trkpt>
      <trkpt lat="46.63256" lon="-1.88574">
        <ele>0.24233927596995</ele>
        <time>2022-05-26T12:04:01Z</time>
      </trkpt>
      <trkpt lat="46.63267" lon="-1.88595">
        <ele>-0.75790797515562</ele>
        <time>2022-05-26T12:04:10Z</time>
      </trkpt>
      <trkpt lat="46.63278" lon="-1.88616">
        <ele>1.2418541655154</ele>
        <time>2022-05-26T12:04:21Z</time>
      </trkpt>
      <trkpt lat="46.63296" lon="-1.88652">
        <ele>0.24142621512625</ele>
        <time>2022-05-26T12:04:30Z</time>
      </trkpt>
      <trkpt lat="46.63322" lon="-1.88689">
        <ele>2.2410935564382</ele>
        <time>2022-05-26T12:04:40Z</time>
      </trkpt>
      <trkpt lat="46.63353" lon="-1.88718">
        <ele>3.2410384254706</ele>
        <time>2022-05-26T12:04:50Z</time>
      </trkpt>
      <trkpt lat="46.63384" lon="-1.88746">
        <ele>3.2410003148651</ele>
        <time>2022-05-26T12:05:00Z</time>
      </trkpt>
      <trkpt lat="46.63405" lon="-1.88784">
        <ele>5.2405545186815</ele>
        <time>2022-05-26T12:05:09Z</time>
      </trkpt>
      <trkpt lat="46.63426" lon="-1.88831">
        <ele>6.2399353504958</ele>
        <time>2022-05-26T12:05:19Z</time>
      </trkpt>
      <trkpt lat="46.63442" lon="-1.88875">
        <ele>6.2392761368073</ele>
        <time>2022-05-26T12:05:28Z</time>
      </trkpt>
      <trkpt lat="46.63461" lon="-1.88924">
        <ele>6.2385428195559</ele>
        <time>2022-05-26T12:05:37Z</time>
      </trkpt>
      <trkpt lat="46.63478" lon="-1.88952">
        <ele>5.2382480335159</ele>
        <time>2022-05-26T12:05:46Z</time>
      </trkpt>
      <trkpt lat="46.63495" lon="-1.88992">
        <ele>5.2376915594887</ele>
        <time>2022-05-26T12:05:56Z</time>
      </trkpt>
      <trkpt lat="46.63514" lon="-1.89039">
        <ele>5.237014918242</ele>
        <time>2022-05-26T12:06:05Z</time>
      </trkpt>
      <trkpt lat="46.63545" lon="-1.89077">
        <ele>5.2367113129364</ele>
        <time>2022-05-26T12:06:15Z</time>
      </trkpt>
      <trkpt lat="46.63574" lon="-1.89098">
        <ele>5.2367811779929</ele>
        <time>2022-05-26T12:06:24Z</time>
      </trkpt>
      <trkpt lat="46.63603" lon="-1.8912">
        <ele>5.2367948069523</ele>
        <time>2022-05-26T12:06:33Z</time>
      </trkpt>
      <trkpt lat="46.63633" lon="-1.89143">
        <ele>5.2368240163317</ele>
        <time>2022-05-26T12:06:42Z</time>
      </trkpt>
      <trkpt lat="46.63664" lon="-1.89165">
        <ele>4.2368737897218</ele>
        <time>2022-05-26T12:06:51Z</time>
      </trkpt>
      <trkpt lat="46.63699" lon="-1.89189">
        <ele>3.2369567821083</ele>
        <time>2022-05-26T12:07:00Z</time>
      </trkpt>
      <trkpt lat="46.63743" lon="-1.89218">
        <ele>2.2370861820855</ele>
        <time>2022-05-26T12:07:10Z</time>
      </trkpt>
      <trkpt lat="46.63781" lon="-1.89251">
        <ele>3.2370059389462</ele>
        <time>2022-05-26T12:07:20Z</time>
      </trkpt>
      <trkpt lat="46.63802" lon="-1.89295">
        <ele>3.2364035274029</ele>
        <time>2022-05-26T12:07:29Z</time>
      </trkpt>
      <trkpt lat="46.63829" lon="-1.89334">
        <ele>4.2359997956416</ele>
        <time>2022-05-26T12:07:38Z</time>
      </trkpt>
      <trkpt lat="46.63856" lon="-1.89375">
        <ele>4.2355529449014</ele>
        <time>2022-05-26T12:07:47Z</time>
      </trkpt>
      <trkpt lat="46.63888" lon="-1.89418">
        <ele>3.2351387184552</ele>
        <time>2022-05-26T12:07:57Z</time>
      </trkpt>
      <trkpt lat="46.63921" lon="-1.89437">
        <ele>2.2352842918031</ele>
        <time>2022-05-26T12:08:06Z</time>
      </trkpt>
      <trkpt lat="46.63955" lon="-1.89437">
        <ele>1.2358505549991</ele>
        <time>2022-05-26T12:08:15Z</time>
      </trkpt>
      <trkpt lat="46.63985" lon="-1.89433">
        <ele>0.23644184387599</ele>
        <time>2022-05-26T12:08:24Z</time>
      </trkpt>
      <trkpt lat="46.64013" lon="-1.89426">
        <ele>-0.7629126637337</ele>
        <time>2022-05-26T12:08:33Z</time>
      </trkpt>
      <trkpt lat="46.64039" lon="-1.8942">
        <ele>-0.76234070457244</ele>
        <time>2022-05-26T12:08:42Z</time>
      </trkpt>
      <trkpt lat="46.64067" lon="-1.89418">
        <ele>0.23816444455998</ele>
        <time>2022-05-26T12:08:51Z</time>
      </trkpt>
      <trkpt lat="46.64095" lon="-1.89423">
        <ele>1.238534130135</ele>
        <time>2022-05-26T12:09:00Z</time>
      </trkpt>
      <trkpt lat="46.64123" lon="-1.89431">
        <ele>1.2388297408868</ele>
        <time>2022-05-26T12:09:09Z</time>
      </trkpt>
      <trkpt lat="46.64152" lon="-1.89439">
        <ele>2.2391403202729</ele>
        <time>2022-05-26T12:09:18Z</time>
      </trkpt>
      <trkpt lat="46.64181" lon="-1.89447">
        <ele>2.2394325226214</ele>
        <time>2022-05-26T12:09:27Z</time>
      </trkpt>
      <trkpt lat="46.64209" lon="-1.89457">
        <ele>3.2397023921452</ele>
        <time>2022-05-26T12:09:37Z</time>
      </trkpt>
      <trkpt lat="46.64241" lon="-1.89467">
        <ele>5.2400063507253</ele>
        <time>2022-05-26T12:09:46Z</time>
      </trkpt>
      <trkpt lat="46.64272" lon="-1.89468">
        <ele>6.2405025112949</ele>
        <time>2022-05-26T12:09:56Z</time>
      </trkpt>
      <trkpt lat="46.64276" lon="-1.89428">
        <ele>6.2414839813126</ele>
        <time>2022-05-26T12:10:05Z</time>
      </trkpt>
      <trkpt lat="46.64292" lon="-1.89374">
        <ele>9.2429863295471</ele>
        <time>2022-05-26T12:10:15Z</time>
      </trkpt>
      <trkpt lat="46.64335" lon="-1.89352">
        <ele>8.2442277579214</ele>
        <time>2022-05-26T12:10:25Z</time>
      </trkpt>
      <trkpt lat="46.64368" lon="-1.89344">
        <ele>9.2449599711738</ele>
        <time>2022-05-26T12:10:34Z</time>
      </trkpt>
      <trkpt lat="46.64399" lon="-1.89349">
        <ele>10.245380910611</ele>
        <time>2022-05-26T12:10:43Z</time>
      </trkpt>
      <trkpt lat="46.64429" lon="-1.8938">
        <ele>11.245165965649</ele>
        <time>2022-05-26T12:10:52Z</time>
      </trkpt>
      <trkpt lat="46.64466" lon="-1.89383">
        <ele>11.245750023749</ele>
        <time>2022-05-26T12:11:02Z</time>
      </trkpt>
      <trkpt lat="46.64493" lon="-1.89378">
        <ele>11.246330139712</ele>
        <time>2022-05-26T12:11:11Z</time>
      </trkpt>
      <trkpt lat="46.6452" lon="-1.89346">
        <ele>12.247529044984</ele>
        <time>2022-05-26T12:11:20Z</time>
      </trkpt>
      <trkpt lat="46.64546" lon="-1.89336">
        <ele>12.248208797887</ele>
        <time>2022-05-26T12:11:29Z</time>
      </trkpt>
      <trkpt lat="46.64576" lon="-1.89347">
        <ele>11.248447527305</ele>
        <time>2022-05-26T12:11:38Z</time>
      </trkpt>
      <trkpt lat="46.64616" lon="-1.89361">
        <ele>11.24880164126</ele>
        <time>2022-05-26T12:11:47Z</time>
      </trkpt>
      <trkpt lat="46.64638" lon="-1.89391">
        <ele>13.248474284075</ele>
        <time>2022-05-26T12:11:56Z</time>
      </trkpt>
      <trkpt lat="46.64668" lon="-1.89415">
        <ele>13.248424128716</ele>
        <time>2022-05-26T12:12:05Z</time>
      </trkpt>
      <trkpt lat="46.64711" lon="-1.89429">
        <ele>11.248820207219</ele>
        <time>2022-05-26T12:12:14Z</time>
      </trkpt>
      <trkpt lat="46.64762" lon="-1.89448">
        <ele>10.249222392455</ele>
        <time>2022-05-26T12:12:24Z</time>
      </trkpt>
      <trkpt lat="46.64778" lon="-1.89417">
        <ele>11.250244747443</ele>
        <time>2022-05-26T12:12:33Z</time>
      </trkpt>
      <trkpt lat="46.64797" lon="-1.89396">
        <ele>12.251043058858</ele>
        <time>2022-05-26T12:12:42Z</time>
      </trkpt>
      <trkpt lat="46.64824" lon="-1.89353">
        <ele>10.252533164216</ele>
        <time>2022-05-26T12:12:52Z</time>
      </trkpt>
      <trkpt lat="46.6486" lon="-1.89327">
        <ele>12.253763896091</ele>
        <time>2022-05-26T12:13:01Z</time>
      </trkpt>
      <trkpt lat="46.64897" lon="-1.89314">
        <ele>9.2546986161604</ele>
        <time>2022-05-26T12:13:11Z</time>
      </trkpt>
      <trkpt lat="46.64921" lon="-1.89367">
        <ele>14.253851125498</ele>
        <time>2022-05-26T12:13:21Z</time>
      </trkpt>
      <trkpt lat="46.64939" lon="-1.89426">
        <ele>11.252738865641</ele>
        <time>2022-05-26T12:13:30Z</time>
      </trkpt>
      <trkpt lat="46.64965" lon="-1.89482">
        <ele>10.251837341734</ele>
        <time>2022-05-26T12:13:39Z</time>
      </trkpt>
      <trkpt lat="46.64981" lon="-1.89541">
        <ele>9.2507130346191</ele>
        <time>2022-05-26T12:13:48Z</time>
      </trkpt>
      <trkpt lat="46.65004" lon="-1.89605">
        <ele>9.2495504050692</ele>
        <time>2022-05-26T12:13:58Z</time>
      </trkpt>
      <trkpt lat="46.65035" lon="-1.89649">
        <ele>9.2490074902304</ele>
        <time>2022-05-26T12:14:07Z</time>
      </trkpt>
      <trkpt lat="46.65054" lon="-1.89683">
        <ele>10.248498877854</ele>
        <time>2022-05-26T12:14:16Z</time>
      </trkpt>
      <trkpt lat="46.65067" lon="-1.897">
        <ele>9.2483082454233</ele>
        <time>2022-05-26T12:14:26Z</time>
      </trkpt>
      <trkpt lat="46.65093" lon="-1.89733">
        <ele>9.2479331406611</ele>
        <time>2022-05-26T12:14:35Z</time>
      </trkpt>
      <trkpt lat="46.65138" lon="-1.89762">
        <ele>6.2479680449454</ele>
        <time>2022-05-26T12:14:45Z</time>
      </trkpt>
      <trkpt lat="46.6518" lon="-1.89728">
        <ele>5.2494891290176</ele>
        <time>2022-05-26T12:14:54Z</time>
      </trkpt>
      <trkpt lat="46.65225" lon="-1.89702">
        <ele>5.2508551207322</ele>
        <time>2022-05-26T12:15:03Z</time>
      </trkpt>
      <trkpt lat="46.65263" lon="-1.89726">
        <ele>3.2508922491291</ele>
        <time>2022-05-26T12:15:12Z</time>
      </trkpt>
      <trkpt lat="46.65293" lon="-1.89763">
        <ele>4.2504852302213</ele>
        <time>2022-05-26T12:15:21Z</time>
      </trkpt>
      <trkpt lat="46.65324" lon="-1.89746">
        <ele>7.2514097990208</ele>
        <time>2022-05-26T12:15:30Z</time>
      </trkpt>
      <trkpt lat="46.65356" lon="-1.89714">
        <ele>7.2527246425435</ele>
        <time>2022-05-26T12:15:39Z</time>
      </trkpt>
      <trkpt lat="46.65387" lon="-1.89671">
        <ele>9.2542849722427</ele>
        <time>2022-05-26T12:15:47Z</time>
      </trkpt>
      <trkpt lat="46.65426" lon="-1.89615">
        <ele>8.2563068771511</ele>
        <time>2022-05-26T12:15:57Z</time>
      </trkpt>
      <trkpt lat="46.65466" lon="-1.89609">
        <ele>9.2571292727341</ele>
        <time>2022-05-26T12:16:06Z</time>
      </trkpt>
      <trkpt lat="46.65499" lon="-1.89635">
        <ele>8.2570416257325</ele>
        <time>2022-05-26T12:16:15Z</time>
      </trkpt>
      <trkpt lat="46.65543" lon="-1.89669">
        <ele>8.2569289331064</ele>
        <time>2022-05-26T12:16:25Z</time>
      </trkpt>
      <trkpt lat="46.65577" lon="-1.89686">
        <ele>7.2570467308551</ele>
        <time>2022-05-26T12:16:34Z</time>
      </trkpt>
      <trkpt lat="46.65618" lon="-1.8971">
        <ele>6.2571245940116</ele>
        <time>2022-05-26T12:16:43Z</time>
      </trkpt>
      <trkpt lat="46.65661" lon="-1.8974">
        <ele>4.257077102252</ele>
        <time>2022-05-26T12:16:53Z</time>
      </trkpt>
      <trkpt lat="46.65695" lon="-1.89763">
        <ele>4.2570727124821</ele>
        <time>2022-05-26T12:17:02Z</time>
      </trkpt>
      <trkpt lat="46.65725" lon="-1.89783">
        <ele>4.2570722200158</ele>
        <time>2022-05-26T12:17:11Z</time>
      </trkpt>
      <trkpt lat="46.65773" lon="-1.89814">
        <ele>5.2570791811468</ele>
        <time>2022-05-26T12:17:20Z</time>
      </trkpt>
      <trkpt lat="46.65813" lon="-1.89831">
        <ele>6.2572807520551</ele>
        <time>2022-05-26T12:17:30Z</time>
      </trkpt>
      <trkpt lat="46.65854" lon="-1.89867">
        <ele>5.2570493826045</ele>
        <time>2022-05-26T12:17:39Z</time>
      </trkpt>
      <trkpt lat="46.65897" lon="-1.89896">
        <ele>7.2570019329865</ele>
        <time>2022-05-26T12:17:48Z</time>
      </trkpt>
      <trkpt lat="46.6594" lon="-1.89912">
        <ele>9.2572839494093</ele>
        <time>2022-05-26T12:17:58Z</time>
      </trkpt>
      <trkpt lat="46.65966" lon="-1.89934">
        <ele>7.257137050104</ele>
        <time>2022-05-26T12:18:07Z</time>
      </trkpt>
      <trkpt lat="46.66007" lon="-1.8996">
        <ele>9.2571488390429</ele>
        <time>2022-05-26T12:18:16Z</time>
      </trkpt>
      <trkpt lat="46.66043" lon="-1.89977">
        <ele>10.25725894035</ele>
        <time>2022-05-26T12:18:25Z</time>
      </trkpt>
      <trkpt lat="46.66072" lon="-1.90007">
        <ele>10.256972106999</ele>
        <time>2022-05-26T12:18:35Z</time>
      </trkpt>
      <trkpt lat="46.66079" lon="-1.9003">
        <ele>10.256494533404</ele>
        <time>2022-05-26T12:19:45Z</time>
      </trkpt>
      <trkpt lat="46.66088" lon="-1.90053">
        <ele>9.256049644587</ele>
        <time>2022-05-26T12:19:54Z</time>
      </trkpt>
      <trkpt lat="46.66112" lon="-1.90094">
        <ele>10.255382488265</ele>
        <time>2022-05-26T12:20:04Z</time>
      </trkpt>
      <trkpt lat="46.66117" lon="-1.90118">
        <ele>6.2548158038548</ele>
        <time>2022-05-26T12:20:54Z</time>
      </trkpt>
      <trkpt lat="46.66118" lon="-1.90159">
        <ele>7.2537769106039</ele>
        <time>2022-05-26T12:21:03Z</time>
      </trkpt>
      <trkpt lat="46.66107" lon="-1.90211">
        <ele>6.2522804728438</ele>
        <time>2022-05-26T12:21:12Z</time>
      </trkpt>
      <trkpt lat="46.66101" lon="-1.90241">
        <ele>5.2513950769318</ele>
        <time>2022-05-26T12:21:21Z</time>
      </trkpt>
      <trkpt lat="46.66086" lon="-1.90295">
        <ele>6.2497741310057</ele>
        <time>2022-05-26T12:21:31Z</time>
      </trkpt>
      <trkpt lat="46.66089" lon="-1.90381">
        <ele>3.2476081553841</ele>
        <time>2022-05-26T12:21:41Z</time>
      </trkpt>
      <trkpt lat="46.66092" lon="-1.90461">
        <ele>0.24560145709145</ele>
        <time>2022-05-26T12:21:51Z</time>
      </trkpt>
      <trkpt lat="46.66109" lon="-1.90527">
        <ele>-2.7558392081204</ele>
        <time>2022-05-26T12:22:00Z</time>
      </trkpt>
      <trkpt lat="46.66132" lon="-1.90585">
        <ele>-2.7569991908473</ele>
        <time>2022-05-26T12:22:10Z</time>
      </trkpt>
      <trkpt lat="46.66171" lon="-1.90598">
        <ele>-1.7567467155454</ele>
        <time>2022-05-26T12:22:19Z</time>
      </trkpt>
      <trkpt lat="46.66216" lon="-1.90605">
        <ele>-4.7562303829765</ele>
        <time>2022-05-26T12:22:29Z</time>
      </trkpt>
      <trkpt lat="46.66252" lon="-1.90619">
        <ele>-4.7560459101258</ele>
        <time>2022-05-26T12:22:38Z</time>
      </trkpt>
      <trkpt lat="46.66275" lon="-1.90622">
        <ele>-3.7557895728214</ele>
        <time>2022-05-26T12:22:47Z</time>
      </trkpt>
      <trkpt lat="46.66301" lon="-1.90628">
        <ele>-2.7555490021548</ele>
        <time>2022-05-26T12:22:56Z</time>
      </trkpt>
      <trkpt lat="46.6634" lon="-1.90634">
        <ele>-5.7551327761407</ele>
        <time>2022-05-26T12:23:05Z</time>
      </trkpt>
      <trkpt lat="46.66375" lon="-1.90619">
        <ele>-6.7542221045816</ele>
        <time>2022-05-26T12:23:15Z</time>
      </trkpt>
      <trkpt lat="46.66407" lon="-1.906">
        <ele>-4.7532420381125</ele>
        <time>2022-05-26T12:23:24Z</time>
      </trkpt>
      <trkpt lat="46.66446" lon="-1.90583">
        <ele>-3.7522096781182</ele>
        <time>2022-05-26T12:23:33Z</time>
      </trkpt>
      <trkpt lat="46.66492" lon="-1.906">
        <ele>-3.7519709262326</ele>
        <time>2022-05-26T12:23:43Z</time>
      </trkpt>
      <trkpt lat="46.66537" lon="-1.90603">
        <ele>-1.7513713535344</ele>
        <time>2022-05-26T12:23:52Z</time>
      </trkpt>
      <trkpt lat="46.66578" lon="-1.90601">
        <ele>-1.7507005876398</ele>
        <time>2022-05-26T12:24:01Z</time>
      </trkpt>
      <trkpt lat="46.66614" lon="-1.90614">
        <ele>0.24950482015822</ele>
        <time>2022-05-26T12:24:10Z</time>
      </trkpt>
      <trkpt lat="46.66661" lon="-1.90624">
        <ele>1.2499376595708</ele>
        <time>2022-05-26T12:24:20Z</time>
      </trkpt>
      <trkpt lat="46.66684" lon="-1.90683">
        <ele>-1.7512976419758</ele>
        <time>2022-05-26T12:24:29Z</time>
      </trkpt>
      <trkpt lat="46.66698" lon="-1.90753">
        <ele>-3.752943988652</ele>
        <time>2022-05-26T12:24:39Z</time>
      </trkpt>
      <trkpt lat="46.66695" lon="-1.90811">
        <ele>-3.7545532022335</ele>
        <time>2022-05-26T12:24:48Z</time>
      </trkpt>
      <trkpt lat="46.66692" lon="-1.90871">
        <ele>-3.7562019744963</ele>
        <time>2022-05-26T12:24:57Z</time>
      </trkpt>
      <trkpt lat="46.66682" lon="-1.90923">
        <ele>-1.7577236092053</ele>
        <time>2022-05-26T12:25:06Z</time>
      </trkpt>
      <trkpt lat="46.66667" lon="-1.90977">
        <ele>-2.7593746922592</ele>
        <time>2022-05-26T12:25:15Z</time>
      </trkpt>
      <trkpt lat="46.66662" lon="-1.91037">
        <ele>-3.7610450333678</ele>
        <time>2022-05-26T12:25:25Z</time>
      </trkpt>
      <trkpt lat="46.66673" lon="-1.91093">
        <ele>-2.7624022486773</ele>
        <time>2022-05-26T12:25:34Z</time>
      </trkpt>
      <trkpt lat="46.66696" lon="-1.91099">
        <ele>-1.7622348766945</ele>
        <time>2022-05-26T12:25:43Z</time>
      </trkpt>
      <trkpt lat="46.6671" lon="-1.91089">
        <ele>-0.76175027610262</ele>
        <time>2022-05-26T12:25:56Z</time>
      </trkpt>
      <trkpt lat="46.66734" lon="-1.91052">
        <ele>-1.7604223361869</ele>
        <time>2022-05-26T12:26:05Z</time>
      </trkpt>
      <trkpt lat="46.66744" lon="-1.9103">
        <ele>-1.7596881112275</ele>
        <time>2022-05-26T12:26:15Z</time>
      </trkpt>
      <trkpt lat="46.66741" lon="-1.91005">
        <ele>-2.7590728192493</ele>
        <time>2022-05-26T12:26:41Z</time>
      </trkpt>
      <trkpt lat="46.66746" lon="-1.90982">
        <ele>-0.75838503887719</ele>
        <time>2022-05-26T12:27:18Z</time>
      </trkpt>
      <trkpt lat="46.66748" lon="-1.90958">
        <ele>-0.75770654678583</ele>
        <time>2022-05-26T12:28:07Z</time>
      </trkpt>
      <trkpt lat="46.66777" lon="-1.90931">
        <ele>-2.75655142015</ele>
        <time>2022-05-26T12:28:16Z</time>
      </trkpt>
      <trkpt lat="46.66809" lon="-1.90914">
        <ele>0.24437154857753</ele>
        <time>2022-05-26T12:28:25Z</time>
      </trkpt>
      <trkpt lat="46.66836" lon="-1.90901">
        <ele>2.2451201671812</ele>
        <time>2022-05-26T12:28:34Z</time>
      </trkpt>
      <trkpt lat="46.66869" lon="-1.90871">
        <ele>0.24640425407927</ele>
        <time>2022-05-26T12:28:44Z</time>
      </trkpt>
      <trkpt lat="46.66907" lon="-1.90844">
        <ele>0.24769429908726</ele>
        <time>2022-05-26T12:28:54Z</time>
      </trkpt>
      <trkpt lat="46.66943" lon="-1.90826">
        <ele>3.2486912673474</ele>
        <time>2022-05-26T12:29:03Z</time>
      </trkpt>
      <trkpt lat="46.66982" lon="-1.90831">
        <ele>3.2491192801398</ele>
        <time>2022-05-26T12:29:12Z</time>
      </trkpt>
      <trkpt lat="46.6702" lon="-1.90835">
        <ele>2.2495655072792</ele>
        <time>2022-05-26T12:29:21Z</time>
      </trkpt>
      <trkpt lat="46.67062" lon="-1.90852">
        <ele>1.2497510548103</ele>
        <time>2022-05-26T12:29:31Z</time>
      </trkpt>
      <trkpt lat="46.67097" lon="-1.90864">
        <ele>-0.75007173183565</ele>
        <time>2022-05-26T12:29:40Z</time>
      </trkpt>
      <trkpt lat="46.67122" lon="-1.90827">
        <ele>-1.7487200064327</ele>
        <time>2022-05-26T12:29:49Z</time>
      </trkpt>
      <trkpt lat="46.67141" lon="-1.90804">
        <ele>-2.747802077818</ele>
        <time>2022-05-26T12:29:58Z</time>
      </trkpt>
      <trkpt lat="46.67162" lon="-1.90832">
        <ele>-4.7482572248688</ele>
        <time>2022-05-26T12:30:08Z</time>
      </trkpt>
      <trkpt lat="46.67181" lon="-1.90873">
        <ele>-4.7490996053085</ele>
        <time>2022-05-26T12:30:17Z</time>
      </trkpt>
      <trkpt lat="46.6721" lon="-1.9092">
        <ele>-4.749974021721</ele>
        <time>2022-05-26T12:30:27Z</time>
      </trkpt>
      <trkpt lat="46.67243" lon="-1.90966">
        <ele>-6.7507637330851</ele>
        <time>2022-05-26T12:30:36Z</time>
      </trkpt>
      <trkpt lat="46.67272" lon="-1.91016">
        <ele>-7.7517109610813</ele>
        <time>2022-05-26T12:30:45Z</time>
      </trkpt>
      <trkpt lat="46.67297" lon="-1.91068">
        <ele>-6.7527994430688</ele>
        <time>2022-05-26T12:30:54Z</time>
      </trkpt>
      <trkpt lat="46.67323" lon="-1.9112">
        <ele>-7.7538752240829</ele>
        <time>2022-05-26T12:31:04Z</time>
      </trkpt>
      <trkpt lat="46.67346" lon="-1.91173">
        <ele>-8.7550150182663</ele>
        <time>2022-05-26T12:31:14Z</time>
      </trkpt>
      <trkpt lat="46.67361" lon="-1.9122">
        <ele>-8.7561076944626</ele>
        <time>2022-05-26T12:31:23Z</time>
      </trkpt>
      <trkpt lat="46.67382" lon="-1.91267">
        <ele>-8.7571300547076</ele>
        <time>2022-05-26T12:31:32Z</time>
      </trkpt>
      <trkpt lat="46.67408" lon="-1.91317">
        <ele>-7.7581632945449</ele>
        <time>2022-05-26T12:31:42Z</time>
      </trkpt>
      <trkpt lat="46.67433" lon="-1.91358">
        <ele>-7.758945074117</ele>
        <time>2022-05-26T12:31:51Z</time>
      </trkpt>
      <trkpt lat="46.6745" lon="-1.91389">
        <ele>-7.7595836399118</ele>
        <time>2022-05-26T12:32:00Z</time>
      </trkpt>
      <trkpt lat="46.67464" lon="-1.91403">
        <ele>-5.7597821221311</ele>
        <time>2022-05-26T12:32:19Z</time>
      </trkpt>
      <trkpt lat="46.67478" lon="-1.91415">
        <ele>-4.7599123421448</ele>
        <time>2022-05-26T12:32:28Z</time>
      </trkpt>
      <trkpt lat="46.67494" lon="-1.91451">
        <ele>-5.7607160143749</ele>
        <time>2022-05-26T12:32:37Z</time>
      </trkpt>
      <trkpt lat="46.67517" lon="-1.91498">
        <ele>-5.7617198271018</ele>
        <time>2022-05-26T12:32:47Z</time>
      </trkpt>
      <trkpt lat="46.67537" lon="-1.91543">
        <ele>-4.7627143413401</ele>
        <time>2022-05-26T12:32:56Z</time>
      </trkpt>
      <trkpt lat="46.67558" lon="-1.91591">
        <ele>-2.7637639516184</ele>
        <time>2022-05-26T12:33:05Z</time>
      </trkpt>
      <trkpt lat="46.6758" lon="-1.9164">
        <ele>-2.7648411226368</ele>
        <time>2022-05-26T12:33:14Z</time>
      </trkpt>
      <trkpt lat="46.67603" lon="-1.91686">
        <ele>-0.76583761246248</ele>
        <time>2022-05-26T12:33:24Z</time>
      </trkpt>
      <trkpt lat="46.67622" lon="-1.91726">
        <ele>-0.76671644205384</ele>
        <time>2022-05-26T12:33:33Z</time>
      </trkpt>
      <trkpt lat="46.67643" lon="-1.91767">
        <ele>-0.76759274307754</ele>
        <time>2022-05-26T12:33:42Z</time>
      </trkpt>
      <trkpt lat="46.67664" lon="-1.91804">
        <ele>-2.7683604443141</ele>
        <time>2022-05-26T12:33:52Z</time>
      </trkpt>
      <trkpt lat="46.67681" lon="-1.91837">
        <ele>-4.7690621565878</ele>
        <time>2022-05-26T12:34:01Z</time>
      </trkpt>
      <trkpt lat="46.67705" lon="-1.91876">
        <ele>-2.7698749320418</ele>
        <time>2022-05-26T12:34:11Z</time>
      </trkpt>
      <trkpt lat="46.67727" lon="-1.91917">
        <ele>-2.7707313911675</ele>
        <time>2022-05-26T12:34:21Z</time>
      </trkpt>
      <trkpt lat="46.67754" lon="-1.91956">
        <ele>-2.7714990433583</ele>
        <time>2022-05-26T12:34:30Z</time>
      </trkpt>
      <trkpt lat="46.67778" lon="-1.91997">
        <ele>-3.7723423547221</ele>
        <time>2022-05-26T12:34:39Z</time>
      </trkpt>
      <trkpt lat="46.67807" lon="-1.92047">
        <ele>-1.7733998024105</ele>
        <time>2022-05-26T12:34:49Z</time>
      </trkpt>
      <trkpt lat="46.67822" lon="-1.92099">
        <ele>-2.7747054251774</ele>
        <time>2022-05-26T12:34:58Z</time>
      </trkpt>
      <trkpt lat="46.67834" lon="-1.92156">
        <ele>-3.7761576491682</ele>
        <time>2022-05-26T12:35:07Z</time>
      </trkpt>
      <trkpt lat="46.67857" lon="-1.92192">
        <ele>-3.7769199564442</ele>
        <time>2022-05-26T12:35:16Z</time>
      </trkpt>
      <trkpt lat="46.67886" lon="-1.92211">
        <ele>-4.7770874953342</ele>
        <time>2022-05-26T12:35:26Z</time>
      </trkpt>
      <trkpt lat="46.67905" lon="-1.92225">
        <ele>-4.7772657317234</ele>
        <time>2022-05-26T12:35:35Z</time>
      </trkpt>
      <trkpt lat="46.67933" lon="-1.92249">
        <ele>-4.7775931293444</ele>
        <time>2022-05-26T12:35:44Z</time>
      </trkpt>
      <trkpt lat="46.67959" lon="-1.92278">
        <ele>-4.7781036349535</ele>
        <time>2022-05-26T12:35:53Z</time>
      </trkpt>
      <trkpt lat="46.67987" lon="-1.92309">
        <ele>-3.7786514809614</ele>
        <time>2022-05-26T12:36:02Z</time>
      </trkpt>
      <trkpt lat="46.68013" lon="-1.92339">
        <ele>-2.7791961378405</ele>
        <time>2022-05-26T12:36:11Z</time>
      </trkpt>
      <trkpt lat="46.6804" lon="-1.92367">
        <ele>-3.7796872399488</ele>
        <time>2022-05-26T12:36:20Z</time>
      </trkpt>
      <trkpt lat="46.68059" lon="-1.92404">
        <ele>-4.7805079413974</ele>
        <time>2022-05-26T12:36:29Z</time>
      </trkpt>
      <trkpt lat="46.68078" lon="-1.92452">
        <ele>-1.7816732791184</ele>
        <time>2022-05-26T12:36:39Z</time>
      </trkpt>
      <trkpt lat="46.68097" lon="-1.92498">
        <ele>-1.7827878278683</ele>
        <time>2022-05-26T12:36:49Z</time>
      </trkpt>
      <trkpt lat="46.68117" lon="-1.92537">
        <ele>-0.78365266356165</ele>
        <time>2022-05-26T12:36:58Z</time>
      </trkpt>
      <trkpt lat="46.68143" lon="-1.9257">
        <ele>-0.78430716312872</ele>
        <time>2022-05-26T12:37:07Z</time>
      </trkpt>
      <trkpt lat="46.68171" lon="-1.92617">
        <ele>-0.78535387020005</ele>
        <time>2022-05-26T12:37:17Z</time>
      </trkpt>
      <trkpt lat="46.6819" lon="-1.92659">
        <ele>-0.78635327179614</ele>
        <time>2022-05-26T12:37:26Z</time>
      </trkpt>
      <trkpt lat="46.68217" lon="-1.92693">
        <ele>-0.78701049948933</ele>
        <time>2022-05-26T12:37:35Z</time>
      </trkpt>
      <trkpt lat="46.68246" lon="-1.92724">
        <ele>-0.78759839324765</ele>
        <time>2022-05-26T12:37:44Z</time>
      </trkpt>
      <trkpt lat="46.68272" lon="-1.92761">
        <ele>-0.78837789357205</ele>
        <time>2022-05-26T12:37:53Z</time>
      </trkpt>
      <trkpt lat="46.68294" lon="-1.92803">
        <ele>-1.7893433700654</ele>
        <time>2022-05-26T12:38:03Z</time>
      </trkpt>
      <trkpt lat="46.68319" lon="-1.9284">
        <ele>-1.7901484744663</ele>
        <time>2022-05-26T12:38:12Z</time>
      </trkpt>
      <trkpt lat="46.68346" lon="-1.92879">
        <ele>-0.79097621321218</ele>
        <time>2022-05-26T12:38:21Z</time>
      </trkpt>
      <trkpt lat="46.68374" lon="-1.92919">
        <ele>-1.7918411399955</ele>
        <time>2022-05-26T12:38:30Z</time>
      </trkpt>
      <trkpt lat="46.68408" lon="-1.92963">
        <ele>-0.79274128546543</ele>
        <time>2022-05-26T12:38:40Z</time>
      </trkpt>
      <trkpt lat="46.68432" lon="-1.93001">
        <ele>-1.7936067202374</ele>
        <time>2022-05-26T12:38:49Z</time>
      </trkpt>
      <trkpt lat="46.6846" lon="-1.93035">
        <ele>-2.79428199732</ele>
        <time>2022-05-26T12:38:58Z</time>
      </trkpt>
      <trkpt lat="46.68493" lon="-1.93065">
        <ele>-2.7948070713353</ele>
        <time>2022-05-26T12:39:07Z</time>
      </trkpt>
      <trkpt lat="46.68527" lon="-1.93097">
        <ele>-3.7953844244752</ele>
        <time>2022-05-26T12:39:16Z</time>
      </trkpt>
      <trkpt lat="46.68561" lon="-1.9313">
        <ele>-3.7959842169601</ele>
        <time>2022-05-26T12:39:25Z</time>
      </trkpt>
      <trkpt lat="46.68598" lon="-1.93163">
        <ele>-3.7965425614746</ele>
        <time>2022-05-26T12:39:35Z</time>
      </trkpt>
      <trkpt lat="46.68624" lon="-1.93188">
        <ele>-2.7970020469144</ele>
        <time>2022-05-26T12:39:44Z</time>
      </trkpt>
      <trkpt lat="46.68639" lon="-1.93197">
        <ele>-4.7971187415123</ele>
        <time>2022-05-26T12:39:55Z</time>
      </trkpt>
      <trkpt lat="46.68667" lon="-1.93212">
        <ele>-5.7972628439217</ele>
        <time>2022-05-26T12:40:04Z</time>
      </trkpt>
      <trkpt lat="46.68705" lon="-1.93224">
        <ele>-4.7971919940986</ele>
        <time>2022-05-26T12:40:13Z</time>
      </trkpt>
      <trkpt lat="46.68753" lon="-1.93234">
        <ele>-4.7969835758124</ele>
        <time>2022-05-26T12:40:23Z</time>
      </trkpt>
      <trkpt lat="46.68798" lon="-1.93239">
        <ele>-4.796660544215</ele>
        <time>2022-05-26T12:40:32Z</time>
      </trkpt>
      <trkpt lat="46.68847" lon="-1.93214">
        <ele>-5.7953772624953</ele>
        <time>2022-05-26T12:40:42Z</time>
      </trkpt>
      <trkpt lat="46.68894" lon="-1.93183">
        <ele>-4.793931106964</ele>
        <time>2022-05-26T12:40:52Z</time>
      </trkpt>
      <trkpt lat="46.68939" lon="-1.93166">
        <ele>-3.7929188349689</ele>
        <time>2022-05-26T12:41:01Z</time>
      </trkpt>
      <trkpt lat="46.68985" lon="-1.93161">
        <ele>0.20774538986971</ele>
        <time>2022-05-26T12:41:10Z</time>
      </trkpt>
      <trkpt lat="46.69026" lon="-1.9316">
        <ele>-0.79179263957919</ele>
        <time>2022-05-26T12:41:19Z</time>
      </trkpt>
      <trkpt lat="46.6907" lon="-1.93165">
        <ele>-0.79143175088903</ele>
        <time>2022-05-26T12:41:29Z</time>
      </trkpt>
      <trkpt lat="46.691" lon="-1.93201">
        <ele>-1.792230877848</ele>
        <time>2022-05-26T12:41:38Z</time>
      </trkpt>
      <trkpt lat="46.69124" lon="-1.93246">
        <ele>-1.793321366855</ele>
        <time>2022-05-26T12:41:48Z</time>
      </trkpt>
      <trkpt lat="46.69146" lon="-1.93287">
        <ele>-1.7943354750928</ele>
        <time>2022-05-26T12:41:57Z</time>
      </trkpt>
      <trkpt lat="46.69158" lon="-1.93313">
        <ele>-1.7950163996685</ele>
        <time>2022-05-26T12:42:06Z</time>
      </trkpt>
      <trkpt lat="46.69175" lon="-1.93318">
        <ele>-2.7950025604095</ele>
        <time>2022-05-26T12:42:17Z</time>
      </trkpt>
      <trkpt lat="46.69193" lon="-1.93309">
        <ele>-4.7945357434837</ele>
        <time>2022-05-26T12:42:27Z</time>
      </trkpt>
      <trkpt lat="46.69209" lon="-1.93314">
        <ele>-5.7945049836094</ele>
        <time>2022-05-26T12:42:44Z</time>
      </trkpt>
      <trkpt lat="46.69246" lon="-1.93316">
        <ele>-1.7941731569325</ele>
        <time>2022-05-26T12:42:54Z</time>
      </trkpt>
      <trkpt lat="46.69278" lon="-1.93321">
        <ele>-2.7939912949945</ele>
        <time>2022-05-26T12:43:04Z</time>
      </trkpt>
      <trkpt lat="46.6932" lon="-1.93329">
        <ele>-1.7937933701635</ele>
        <time>2022-05-26T12:43:14Z</time>
      </trkpt>
      <trkpt lat="46.69357" lon="-1.93341">
        <ele>-1.7937608928998</ele>
        <time>2022-05-26T12:43:24Z</time>
      </trkpt>
      <trkpt lat="46.69381" lon="-1.93351">
        <ele>-0.79380488881869</ele>
        <time>2022-05-26T12:43:33Z</time>
      </trkpt>
      <trkpt lat="46.69407" lon="-1.93339">
        <ele>-1.7931798077614</ele>
        <time>2022-05-26T12:43:42Z</time>
      </trkpt>
      <trkpt lat="46.69438" lon="-1.93352">
        <ele>-0.79322267390663</ele>
        <time>2022-05-26T12:43:51Z</time>
      </trkpt>
      <trkpt lat="46.69454" lon="-1.93359">
        <ele>-2.7932927054623</ele>
        <time>2022-05-26T12:44:22Z</time>
      </trkpt>
      <trkpt lat="46.69488" lon="-1.93373">
        <ele>-2.7933582881561</ele>
        <time>2022-05-26T12:44:32Z</time>
      </trkpt>
      <trkpt lat="46.6952" lon="-1.93389">
        <ele>-2.7935203901619</ele>
        <time>2022-05-26T12:44:42Z</time>
      </trkpt>
      <trkpt lat="46.69555" lon="-1.93403">
        <ele>-3.793586565057</ele>
        <time>2022-05-26T12:44:52Z</time>
      </trkpt>
      <trkpt lat="46.69581" lon="-1.93412">
        <ele>-4.7935992024665</ele>
        <time>2022-05-26T12:45:01Z</time>
      </trkpt>
      <trkpt lat="46.69597" lon="-1.93421">
        <ele>-4.7937238339256</ele>
        <time>2022-05-26T12:45:14Z</time>
      </trkpt>
      <trkpt lat="46.69613" lon="-1.93413">
        <ele>-4.7933100677459</ele>
        <time>2022-05-26T12:45:23Z</time>
      </trkpt>
      <trkpt lat="46.69624" lon="-1.93439">
        <ele>-3.7939840094815</ele>
        <time>2022-05-26T12:45:33Z</time>
      </trkpt>
      <trkpt lat="46.69627" lon="-1.93473">
        <ele>-1.7950249788938</ele>
        <time>2022-05-26T12:45:43Z</time>
      </trkpt>
      <trkpt lat="46.69628" lon="-1.93497">
        <ele>3.2042351258132</ele>
        <time>2022-05-26T12:48:11Z</time>
      </trkpt>
      <trkpt lat="46.69622" lon="-1.93518">
        <ele>3.2034886198273</ele>
        <time>2022-05-26T12:48:25Z</time>
      </trkpt>
      <trkpt lat="46.69609" lon="-1.93543">
        <ele>3.2025679374828</ele>
        <time>2022-05-26T12:48:35Z</time>
      </trkpt>
      <trkpt lat="46.69605" lon="-1.93571">
        <ele>2.2016620399728</ele>
        <time>2022-05-26T12:48:45Z</time>
      </trkpt>
      <trkpt lat="46.69596" lon="-1.93591">
        <ele>0.20094075944269</ele>
        <time>2022-05-26T12:48:59Z</time>
      </trkpt>
      <trkpt lat="46.69575" lon="-1.93598">
        <ele>-0.79949184553923</ele>
        <time>2022-05-26T12:49:08Z</time>
      </trkpt>
      <trkpt lat="46.69555" lon="-1.93583">
        <ele>2.2007775922741</ele>
        <time>2022-05-26T12:49:18Z</time>
      </trkpt>
      <trkpt lat="46.69522" lon="-1.9358">
        <ele>2.2005472419496</ele>
        <time>2022-05-26T12:49:28Z</time>
      </trkpt>
      <trkpt lat="46.69494" lon="-1.93582">
        <ele>1.2001822972846</ele>
        <time>2022-05-26T12:49:38Z</time>
      </trkpt>
      <trkpt lat="46.6947" lon="-1.93589">
        <ele>1.1997239146618</ele>
        <time>2022-05-26T12:49:47Z</time>
      </trkpt>
      <trkpt lat="46.6944" lon="-1.93598">
        <ele>2.1991340174397</ele>
        <time>2022-05-26T12:49:57Z</time>
      </trkpt>
      <trkpt lat="46.69421" lon="-1.93628">
        <ele>1.1979853932814</ele>
        <time>2022-05-26T12:50:06Z</time>
      </trkpt>
      <trkpt lat="46.69428" lon="-1.93671">
        <ele>0.19672453056517</ele>
        <time>2022-05-26T12:50:15Z</time>
      </trkpt>
      <trkpt lat="46.69438" lon="-1.93709">
        <ele>-0.80434461229554</ele>
        <time>2022-05-26T12:50:24Z</time>
      </trkpt>
      <trkpt lat="46.69446" lon="-1.93751">
        <ele>-0.80557521740864</ele>
        <time>2022-05-26T12:50:34Z</time>
      </trkpt>
      <trkpt lat="46.69459" lon="-1.93784">
        <ele>0.19352834413935</ele>
        <time>2022-05-26T12:50:43Z</time>
      </trkpt>
      <trkpt lat="46.69444" lon="-1.93805">
        <ele>0.19272461399595</ele>
        <time>2022-05-26T12:50:53Z</time>
      </trkpt>
      <trkpt lat="46.69432" lon="-1.9382">
        <ele>0.1921606446915</ele>
        <time>2022-05-26T12:51:21Z</time>
      </trkpt>
      <trkpt lat="46.69433" lon="-1.93852">
        <ele>1.1911535394729</ele>
        <time>2022-05-26T12:51:30Z</time>
      </trkpt>
      <trkpt lat="46.69426" lon="-1.93876">
        <ele>1.1903517032473</ele>
        <time>2022-05-26T12:51:41Z</time>
      </trkpt>
      <trkpt lat="46.69436" lon="-1.93898">
        <ele>2.1897490549039</ele>
        <time>2022-05-26T12:51:50Z</time>
      </trkpt>
      <trkpt lat="46.69452" lon="-1.93932">
        <ele>4.1888441127708</ele>
        <time>2022-05-26T12:52:00Z</time>
      </trkpt>
      <trkpt lat="46.69462" lon="-1.93964">
        <ele>2.1879464294104</ele>
        <time>2022-05-26T12:52:09Z</time>
      </trkpt>
      <trkpt lat="46.69461" lon="-1.94011">
        <ele>3.1864989943934</ele>
        <time>2022-05-26T12:52:19Z</time>
      </trkpt>
      <trkpt lat="46.69443" lon="-1.94041">
        <ele>4.1853650237781</ele>
        <time>2022-05-26T12:52:28Z</time>
      </trkpt>
      <trkpt lat="46.69417" lon="-1.94048">
        <ele>2.1849244709078</ele>
        <time>2022-05-26T12:52:37Z</time>
      </trkpt>
      <trkpt lat="46.69414" lon="-1.94052">
        <ele>1.1847538565133</ele>
        <time>2022-05-26T12:54:04Z</time>
      </trkpt>
      <trkpt lat="46.69414" lon="-1.94052">
        <ele>1.1847538565133</ele>
        <time>2022-05-26T12:54:05Z</time>
      </trkpt>
      <trkpt lat="46.69415" lon="-1.94052">
        <ele>2.1847548279838</ele>
        <time>2022-05-26T12:56:01Z</time>
      </trkpt>
      <trkpt lat="46.69431" lon="-1.9405">
        <ele>-0.81500714619204</ele>
        <time>2022-05-26T12:56:42Z</time>
      </trkpt>
      <trkpt lat="46.69457" lon="-1.9403">
        <ele>0.18584371581708</ele>
        <time>2022-05-26T12:56:52Z</time>
      </trkpt>
      <trkpt lat="46.69472" lon="-1.93992">
        <ele>4.1871685893233</ele>
        <time>2022-05-26T12:57:01Z</time>
      </trkpt>
      <trkpt lat="46.69491" lon="-1.93965">
        <ele>5.1881985903286</ele>
        <time>2022-05-26T12:57:10Z</time>
      </trkpt>
      <trkpt lat="46.69509" lon="-1.93971">
        <ele>-0.8118040694981</ele>
        <time>2022-05-26T12:57:30Z</time>
      </trkpt>
      <trkpt lat="46.69521" lon="-1.93997">
        <ele>-2.8125133048411</ele>
        <time>2022-05-26T12:57:39Z</time>
      </trkpt>
      <trkpt lat="46.69537" lon="-1.9403">
        <ele>-3.81338486185</ele>
        <time>2022-05-26T12:57:49Z</time>
      </trkpt>
      <trkpt lat="46.69547" lon="-1.94054">
        <ele>-4.8140195830957</ele>
        <time>2022-05-26T12:57:59Z</time>
      </trkpt>
      <trkpt lat="46.69557" lon="-1.94076">
        <ele>0.18538139205157</ele>
        <time>2022-05-26T12:58:42Z</time>
      </trkpt>
      <trkpt lat="46.69557" lon="-1.94076">
        <ele>0.18538139205157</ele>
        <time>2022-05-26T12:58:42Z</time>
      </trkpt>
      <trkpt lat="46.6957" lon="-1.94078">
        <ele>0.18541928882639</ele>
        <time>2022-05-26T14:32:46Z</time>
      </trkpt>
      <trkpt lat="46.69585" lon="-1.94066">
        <ele>-8.8140471335556</ele>
        <time>2022-05-26T14:33:41Z</time>
      </trkpt>
      <trkpt lat="46.69585" lon="-1.9404">
        <ele>-11.813218099254</ele>
        <time>2022-05-26T14:33:51Z</time>
      </trkpt>
      <trkpt lat="46.69573" lon="-1.94012">
        <ele>-14.812468381912</ele>
        <time>2022-05-26T14:34:00Z</time>
      </trkpt>
      <trkpt lat="46.69552" lon="-1.93976">
        <ele>-9.8115518072667</ele>
        <time>2022-05-26T14:34:09Z</time>
      </trkpt>
      <trkpt lat="46.69537" lon="-1.9393">
        <ele>-6.8102409851874</ele>
        <time>2022-05-26T14:34:18Z</time>
      </trkpt>
      <trkpt lat="46.69526" lon="-1.93905">
        <ele>-7.809591887601</ele>
        <time>2022-05-26T14:34:27Z</time>
      </trkpt>
      <trkpt lat="46.69511" lon="-1.93871">
        <ele>-8.8086840062489</ele>
        <time>2022-05-26T14:34:36Z</time>
      </trkpt>
      <trkpt lat="46.69488" lon="-1.93828">
        <ele>-6.8075392357875</ele>
        <time>2022-05-26T14:34:46Z</time>
      </trkpt>
      <trkpt lat="46.69471" lon="-1.93794">
        <ele>-8.8066639083532</ele>
        <time>2022-05-26T14:34:55Z</time>
      </trkpt>
      <trkpt lat="46.69452" lon="-1.93751">
        <ele>-9.8055083429591</ele>
        <time>2022-05-26T14:35:05Z</time>
      </trkpt>
      <trkpt lat="46.69441" lon="-1.93709">
        <ele>-7.8043173060925</ele>
        <time>2022-05-26T14:35:14Z</time>
      </trkpt>
      <trkpt lat="46.69428" lon="-1.93657">
        <ele>-3.8028368916499</ele>
        <time>2022-05-26T14:35:23Z</time>
      </trkpt>
      <trkpt lat="46.69442" lon="-1.93603">
        <ele>-0.80100010968517</ele>
        <time>2022-05-26T14:35:33Z</time>
      </trkpt>
      <trkpt lat="46.69469" lon="-1.93593">
        <ele>0.19958361739648</ele>
        <time>2022-05-26T14:35:42Z</time>
      </trkpt>
      <trkpt lat="46.69494" lon="-1.93582">
        <ele>3.2001734817587</ele>
        <time>2022-05-26T14:35:52Z</time>
      </trkpt>
      <trkpt lat="46.69522" lon="-1.93579">
        <ele>3.2005578876868</ele>
        <time>2022-05-26T14:36:01Z</time>
      </trkpt>
      <trkpt lat="46.69539" lon="-1.93583">
        <ele>4.2006031288041</ele>
        <time>2022-05-26T14:36:17Z</time>
      </trkpt>
      <trkpt lat="46.69557" lon="-1.93586">
        <ele>3.2007151180652</ele>
        <time>2022-05-26T14:36:27Z</time>
      </trkpt>
      <trkpt lat="46.69574" lon="-1.93586">
        <ele>4.2008816964703</ele>
        <time>2022-05-26T14:36:36Z</time>
      </trkpt>
      <trkpt lat="46.69591" lon="-1.93584">
        <ele>5.2011193230211</ele>
        <time>2022-05-26T14:36:46Z</time>
      </trkpt>
      <trkpt lat="46.69608" lon="-1.93579">
        <ele>5.2014379753478</ele>
        <time>2022-05-26T14:36:56Z</time>
      </trkpt>
      <trkpt lat="46.69619" lon="-1.93559">
        <ele>2.2021844913126</ele>
        <time>2022-05-26T14:37:09Z</time>
      </trkpt>
      <trkpt lat="46.69633" lon="-1.93532">
        <ele>4.2031764673384</ele>
        <time>2022-05-26T14:37:18Z</time>
      </trkpt>
      <trkpt lat="46.69639" lon="-1.93509">
        <ele>3.2039477095499</ele>
        <time>2022-05-26T14:37:28Z</time>
      </trkpt>
      <trkpt lat="46.69641" lon="-1.93485">
        <ele>2.204738653787</ele>
        <time>2022-05-26T14:37:38Z</time>
      </trkpt>
      <trkpt lat="46.69636" lon="-1.93457">
        <ele>0.20557389110689</ele>
        <time>2022-05-26T14:37:47Z</time>
      </trkpt>
      <trkpt lat="46.69625" lon="-1.9344">
        <ele>-0.7940308775223</ele>
        <time>2022-05-26T14:37:56Z</time>
      </trkpt>
      <trkpt lat="46.6961" lon="-1.93431">
        <ele>-2.7938739716025</ele>
        <time>2022-05-26T14:38:07Z</time>
      </trkpt>
      <trkpt lat="46.69588" lon="-1.93423">
        <ele>-1.7938668835353</ele>
        <time>2022-05-26T14:38:16Z</time>
      </trkpt>
      <trkpt lat="46.69571" lon="-1.93415">
        <ele>-0.79380889979574</ele>
        <time>2022-05-26T14:38:32Z</time>
      </trkpt>
      <trkpt lat="46.69551" lon="-1.93406">
        <ele>-2.7937219236059</ele>
        <time>2022-05-26T14:38:42Z</time>
      </trkpt>
      <trkpt lat="46.69524" lon="-1.9339">
        <ele>-5.7935123397164</ele>
        <time>2022-05-26T14:38:51Z</time>
      </trkpt>
      <trkpt lat="46.69486" lon="-1.93376">
        <ele>-8.7934798376908</ele>
        <time>2022-05-26T14:39:01Z</time>
      </trkpt>
      <trkpt lat="46.6945" lon="-1.9336">
        <ele>-9.7933627941993</ele>
        <time>2022-05-26T14:39:10Z</time>
      </trkpt>
      <trkpt lat="46.69412" lon="-1.93349">
        <ele>-9.7934056416446</ele>
        <time>2022-05-26T14:39:19Z</time>
      </trkpt>
      <trkpt lat="46.69395" lon="-1.93359">
        <ele>-7.7939091334847</ele>
        <time>2022-05-26T14:39:28Z</time>
      </trkpt>
      <trkpt lat="46.69377" lon="-1.93345">
        <ele>-7.79365866779</ele>
        <time>2022-05-26T14:39:37Z</time>
      </trkpt>
      <trkpt lat="46.69358" lon="-1.93349">
        <ele>-6.7939834494286</ele>
        <time>2022-05-26T14:39:47Z</time>
      </trkpt>
      <trkpt lat="46.69336" lon="-1.93338">
        <ele>-7.7938989320069</ele>
        <time>2022-05-26T14:39:56Z</time>
      </trkpt>
      <trkpt lat="46.69305" lon="-1.93332">
        <ele>-7.7940341860279</ele>
        <time>2022-05-26T14:40:05Z</time>
      </trkpt>
      <trkpt lat="46.6927" lon="-1.9332">
        <ele>-7.7940236589261</ele>
        <time>2022-05-26T14:40:14Z</time>
      </trkpt>
      <trkpt lat="46.69234" lon="-1.93317">
        <ele>-4.7943418804602</ele>
        <time>2022-05-26T14:40:23Z</time>
      </trkpt>
      <trkpt lat="46.69202" lon="-1.93317">
        <ele>-3.7946763582853</ele>
        <time>2022-05-26T14:40:32Z</time>
      </trkpt>
      <trkpt lat="46.69181" lon="-1.93331">
        <ele>-0.79532375747436</ele>
        <time>2022-05-26T14:40:42Z</time>
      </trkpt>
      <trkpt lat="46.69171" lon="-1.93312">
        <ele>-2.7948627113456</ele>
        <time>2022-05-26T14:41:01Z</time>
      </trkpt>
      <trkpt lat="46.69153" lon="-1.93283">
        <ele>-4.7941624140715</ele>
        <time>2022-05-26T14:41:10Z</time>
      </trkpt>
      <trkpt lat="46.69132" lon="-1.93242">
        <ele>-3.7931377684769</ele>
        <time>2022-05-26T14:41:19Z</time>
      </trkpt>
      <trkpt lat="46.69109" lon="-1.932">
        <ele>-3.7921101197939</ele>
        <time>2022-05-26T14:41:28Z</time>
      </trkpt>
      <trkpt lat="46.69067" lon="-1.93165">
        <ele>-0.79147442637894</ele>
        <time>2022-05-26T14:41:38Z</time>
      </trkpt>
      <trkpt lat="46.69018" lon="-1.93163">
        <ele>-1.7919654880674</ele>
        <time>2022-05-26T14:41:47Z</time>
      </trkpt>
      <trkpt lat="46.68965" lon="-1.93164">
        <ele>0.20744411709041</ele>
        <time>2022-05-26T14:41:57Z</time>
      </trkpt>
      <trkpt lat="46.68923" lon="-1.93172">
        <ele>1.2067245607761</ele>
        <time>2022-05-26T14:42:06Z</time>
      </trkpt>
      <trkpt lat="46.68883" lon="-1.93201">
        <ele>-0.79459514974025</ele>
        <time>2022-05-26T14:42:15Z</time>
      </trkpt>
      <trkpt lat="46.6884" lon="-1.93231">
        <ele>-1.7959583605648</ele>
        <time>2022-05-26T14:42:25Z</time>
      </trkpt>
      <trkpt lat="46.68802" lon="-1.93248">
        <ele>-4.7968794890669</ele>
        <time>2022-05-26T14:42:34Z</time>
      </trkpt>
      <trkpt lat="46.68763" lon="-1.93242">
        <ele>-6.7971096402403</ele>
        <time>2022-05-26T14:42:43Z</time>
      </trkpt>
      <trkpt lat="46.68722" lon="-1.93234">
        <ele>-7.7973114523979</ele>
        <time>2022-05-26T14:42:52Z</time>
      </trkpt>
      <trkpt lat="46.68677" lon="-1.93218">
        <ele>-8.7973447827347</ele>
        <time>2022-05-26T14:43:02Z</time>
      </trkpt>
      <trkpt lat="46.68651" lon="-1.93206">
        <ele>-8.7972618188374</ele>
        <time>2022-05-26T14:43:11Z</time>
      </trkpt>
      <trkpt lat="46.68635" lon="-1.93195">
        <ele>-9.7970852445069</ele>
        <time>2022-05-26T14:43:35Z</time>
      </trkpt>
      <trkpt lat="46.68621" lon="-1.93183">
        <ele>-9.7968996908559</ele>
        <time>2022-05-26T14:43:44Z</time>
      </trkpt>
      <trkpt lat="46.68598" lon="-1.93161">
        <ele>-10.796505212983</ele>
        <time>2022-05-26T14:43:53Z</time>
      </trkpt>
      <trkpt lat="46.68571" lon="-1.93138">
        <ele>-11.796107022222</ele>
        <time>2022-05-26T14:44:02Z</time>
      </trkpt>
      <trkpt lat="46.68532" lon="-1.93099">
        <ele>-11.795375961306</ele>
        <time>2022-05-26T14:44:12Z</time>
      </trkpt>
      <trkpt lat="46.68496" lon="-1.93064">
        <ele>-11.794737080164</ele>
        <time>2022-05-26T14:44:21Z</time>
      </trkpt>
      <trkpt lat="46.68461" lon="-1.93025">
        <ele>-7.7939660723854</ele>
        <time>2022-05-26T14:44:30Z</time>
      </trkpt>
      <trkpt lat="46.68438" lon="-1.92992">
        <ele>-5.7932531594764</ele>
        <time>2022-05-26T14:44:40Z</time>
      </trkpt>
      <trkpt lat="46.6842" lon="-1.92966">
        <ele>-6.7927022235393</ele>
        <time>2022-05-26T14:44:50Z</time>
      </trkpt>
      <trkpt lat="46.6839" lon="-1.92919">
        <ele>-1.7916528968694</ele>
        <time>2022-05-26T14:44:59Z</time>
      </trkpt>
      <trkpt lat="46.68363" lon="-1.92881">
        <ele>-2.7908508270815</ele>
        <time>2022-05-26T14:45:08Z</time>
      </trkpt>
      <trkpt lat="46.68337" lon="-1.92848">
        <ele>-4.7901645565841</ele>
        <time>2022-05-26T14:45:17Z</time>
      </trkpt>
      <trkpt lat="46.68311" lon="-1.92803">
        <ele>-4.7891294074362</ele>
        <time>2022-05-26T14:45:26Z</time>
      </trkpt>
      <trkpt lat="46.68285" lon="-1.92756">
        <ele>-3.7880632652893</ele>
        <time>2022-05-26T14:45:35Z</time>
      </trkpt>
      <trkpt lat="46.68257" lon="-1.92718">
        <ele>-3.7872922118223</ele>
        <time>2022-05-26T14:45:44Z</time>
      </trkpt>
      <trkpt lat="46.68221" lon="-1.92679">
        <ele>-4.7865610312942</ele>
        <time>2022-05-26T14:45:54Z</time>
      </trkpt>
      <trkpt lat="46.68193" lon="-1.92634">
        <ele>-6.7855715040817</ele>
        <time>2022-05-26T14:46:03Z</time>
      </trkpt>
      <trkpt lat="46.68169" lon="-1.92585">
        <ele>-6.7844481215088</ele>
        <time>2022-05-26T14:46:13Z</time>
      </trkpt>
      <trkpt lat="46.68153" lon="-1.92569">
        <ele>-7.7841671374474</ele>
        <time>2022-05-26T14:46:23Z</time>
      </trkpt>
      <trkpt lat="46.6814" lon="-1.92554">
        <ele>-2.7838746761518</ele>
        <time>2022-05-26T14:46:53Z</time>
      </trkpt>
      <trkpt lat="46.68117" lon="-1.92513">
        <ele>-0.78296895765749</ele>
        <time>2022-05-26T14:47:02Z</time>
      </trkpt>
      <trkpt lat="46.68096" lon="-1.92463">
        <ele>-1.7817831622652</ele>
        <time>2022-05-26T14:47:12Z</time>
      </trkpt>
      <trkpt lat="46.68077" lon="-1.92416">
        <ele>-1.7806471692233</ele>
        <time>2022-05-26T14:47:21Z</time>
      </trkpt>
      <trkpt lat="46.68057" lon="-1.92374">
        <ele>-4.7796660071142</ele>
        <time>2022-05-26T14:47:30Z</time>
      </trkpt>
      <trkpt lat="46.68027" lon="-1.92335">
        <ele>-6.7789325127007</ele>
        <time>2022-05-26T14:47:39Z</time>
      </trkpt>
      <trkpt lat="46.67991" lon="-1.92296">
        <ele>-10.778240649677</ele>
        <time>2022-05-26T14:47:48Z</time>
      </trkpt>
      <trkpt lat="46.67957" lon="-1.92255">
        <ele>-12.777467129404</ele>
        <time>2022-05-26T14:47:57Z</time>
      </trkpt>
      <trkpt lat="46.67913" lon="-1.92225">
        <ele>-11.777154592144</ele>
        <time>2022-05-26T14:48:07Z</time>
      </trkpt>
      <trkpt lat="46.67872" lon="-1.92194">
        <ele>-11.776789635551</ele>
        <time>2022-05-26T14:48:16Z</time>
      </trkpt>
      <trkpt lat="46.67843" lon="-1.92146">
        <ele>-11.775782475168</ele>
        <time>2022-05-26T14:48:25Z</time>
      </trkpt>
      <trkpt lat="46.67831" lon="-1.92087">
        <ele>-11.774251650298</ele>
        <time>2022-05-26T14:48:34Z</time>
      </trkpt>
      <trkpt lat="46.67809" lon="-1.92028">
        <ele>-11.772837687586</ele>
        <time>2022-05-26T14:48:44Z</time>
      </trkpt>
      <trkpt lat="46.67775" lon="-1.91973">
        <ele>-10.771719292555</ele>
        <time>2022-05-26T14:48:53Z</time>
      </trkpt>
      <trkpt lat="46.67742" lon="-1.9192">
        <ele>-12.770626258068</ele>
        <time>2022-05-26T14:49:03Z</time>
      </trkpt>
      <trkpt lat="46.67716" lon="-1.91875">
        <ele>-10.769699383886</ele>
        <time>2022-05-26T14:49:12Z</time>
      </trkpt>
      <trkpt lat="46.67687" lon="-1.91827">
        <ele>-11.768705598247</ele>
        <time>2022-05-26T14:49:21Z</time>
      </trkpt>
      <trkpt lat="46.6766" lon="-1.91774">
        <ele>-10.767574673222</ele>
        <time>2022-05-26T14:49:31Z</time>
      </trkpt>
      <trkpt lat="46.67638" lon="-1.91733">
        <ele>-9.7666979074382</ele>
        <time>2022-05-26T14:49:40Z</time>
      </trkpt>
      <trkpt lat="46.67618" lon="-1.91692">
        <ele>-10.765818396595</ele>
        <time>2022-05-26T14:49:49Z</time>
      </trkpt>
      <trkpt lat="46.67598" lon="-1.91646">
        <ele>-4.7647717492044</ele>
        <time>2022-05-26T14:49:58Z</time>
      </trkpt>
      <trkpt lat="46.67579" lon="-1.91604">
        <ele>-1.7638324977544</ele>
        <time>2022-05-26T14:50:07Z</time>
      </trkpt>
      <trkpt lat="46.67559" lon="-1.91561">
        <ele>0.23707593562244</ele>
        <time>2022-05-26T14:50:16Z</time>
      </trkpt>
      <trkpt lat="46.67532" lon="-1.91503">
        <ele>2.2383533278905</ele>
        <time>2022-05-26T14:50:26Z</time>
      </trkpt>
      <trkpt lat="46.67504" lon="-1.91451">
        <ele>-0.76058516085625</ele>
        <time>2022-05-26T14:50:36Z</time>
      </trkpt>
      <trkpt lat="46.67483" lon="-1.91408">
        <ele>1.2403504626507</ele>
        <time>2022-05-26T14:50:45Z</time>
      </trkpt>
      <trkpt lat="46.67468" lon="-1.91399">
        <ele>-1.7596202740328</ele>
        <time>2022-05-26T14:51:04Z</time>
      </trkpt>
      <trkpt lat="46.67442" lon="-1.91356">
        <ele>-2.7587625235742</ele>
        <time>2022-05-26T14:51:13Z</time>
      </trkpt>
      <trkpt lat="46.67412" lon="-1.91301">
        <ele>-4.7576485006692</ele>
        <time>2022-05-26T14:51:22Z</time>
      </trkpt>
      <trkpt lat="46.6738" lon="-1.91236">
        <ele>-7.7562757472334</ele>
        <time>2022-05-26T14:51:32Z</time>
      </trkpt>
      <trkpt lat="46.67359" lon="-1.91172">
        <ele>-6.7548101386693</ele>
        <time>2022-05-26T14:51:41Z</time>
      </trkpt>
      <trkpt lat="46.67333" lon="-1.91113">
        <ele>-2.7535379227447</ele>
        <time>2022-05-26T14:51:50Z</time>
      </trkpt>
      <trkpt lat="46.67306" lon="-1.91057">
        <ele>1.2476219240683</ele>
        <time>2022-05-26T14:51:59Z</time>
      </trkpt>
      <trkpt lat="46.67279" lon="-1.90999">
        <ele>3.248843141382</ele>
        <time>2022-05-26T14:52:08Z</time>
      </trkpt>
      <trkpt lat="46.67248" lon="-1.9096">
        <ele>1.2494832678805</ele>
        <time>2022-05-26T14:52:18Z</time>
      </trkpt>
      <trkpt lat="46.67226" lon="-1.9093">
        <ele>-0.75002353491926</ele>
        <time>2022-05-26T14:52:27Z</time>
      </trkpt>
      <trkpt lat="46.67202" lon="-1.90895">
        <ele>0.25059891176782</ele>
        <time>2022-05-26T14:52:36Z</time>
      </trkpt>
      <trkpt lat="46.67176" lon="-1.90844">
        <ele>-0.74839111116399</ele>
        <time>2022-05-26T14:52:46Z</time>
      </trkpt>
      <trkpt lat="46.67154" lon="-1.90812">
        <ele>-0.74783074290161</ele>
        <time>2022-05-26T14:52:55Z</time>
      </trkpt>
      <trkpt lat="46.67142" lon="-1.90829">
        <ele>-1.7484563681493</ele>
        <time>2022-05-26T14:53:38Z</time>
      </trkpt>
      <trkpt lat="46.67121" lon="-1.90855">
        <ele>-2.7494771517484</ele>
        <time>2022-05-26T14:53:47Z</time>
      </trkpt>
      <trkpt lat="46.67099" lon="-1.90885">
        <ele>-1.750624700655</ele>
        <time>2022-05-26T14:53:57Z</time>
      </trkpt>
      <trkpt lat="46.67087" lon="-1.90865">
        <ele>-3.7502577019006</ele>
        <time>2022-05-26T14:54:10Z</time>
      </trkpt>
      <trkpt lat="46.67052" lon="-1.90852">
        <ele>-1.7504179174617</ele>
        <time>2022-05-26T14:54:19Z</time>
      </trkpt>
      <trkpt lat="46.67023" lon="-1.90842">
        <ele>-0.75057731472659</ele>
        <time>2022-05-26T14:54:28Z</time>
      </trkpt>
      <trkpt lat="46.66987" lon="-1.90839">
        <ele>1.2490076181001</ele>
        <time>2022-05-26T14:54:37Z</time>
      </trkpt>
      <trkpt lat="46.66951" lon="-1.9083">
        <ele>3.2487109534709</ele>
        <time>2022-05-26T14:54:46Z</time>
      </trkpt>
      <trkpt lat="46.6691" lon="-1.90848">
        <ele>2.2476090493164</ele>
        <time>2022-05-26T14:54:55Z</time>
      </trkpt>
      <trkpt lat="46.66876" lon="-1.90881">
        <ele>1.246227218987</ele>
        <time>2022-05-26T14:55:04Z</time>
      </trkpt>
      <trkpt lat="46.6684" lon="-1.90912">
        <ele>4.2448603711542</ele>
        <time>2022-05-26T14:55:14Z</time>
      </trkpt>
      <trkpt lat="46.66807" lon="-1.90931">
        <ele>3.2438864856321</ele>
        <time>2022-05-26T14:55:23Z</time>
      </trkpt>
      <trkpt lat="46.66772" lon="-1.9095">
        <ele>5.2428577339463</ele>
        <time>2022-05-26T14:55:32Z</time>
      </trkpt>
      <trkpt lat="46.66752" lon="-1.91003">
        <ele>6.2411526285786</ele>
        <time>2022-05-26T14:55:42Z</time>
      </trkpt>
      <trkpt lat="46.6675" lon="-1.91051">
        <ele>8.239835990916</ele>
        <time>2022-05-26T14:55:51Z</time>
      </trkpt>
      <trkpt lat="46.66725" lon="-1.9109">
        <ele>10.238429245467</ele>
        <time>2022-05-26T14:56:01Z</time>
      </trkpt>
      <trkpt lat="46.66696" lon="-1.91109">
        <ele>11.237494511159</ele>
        <time>2022-05-26T14:56:10Z</time>
      </trkpt>
      <trkpt lat="46.66675" lon="-1.91066">
        <ele>9.2383545864917</ele>
        <time>2022-05-26T14:56:19Z</time>
      </trkpt>
      <trkpt lat="46.66674" lon="-1.91019">
        <ele>4.239596864964</ele>
        <time>2022-05-26T14:56:28Z</time>
      </trkpt>
      <trkpt lat="46.66684" lon="-1.90955">
        <ele>4.2414402411873</ele>
        <time>2022-05-26T14:56:38Z</time>
      </trkpt>
      <trkpt lat="46.66702" lon="-1.90895">
        <ele>6.2433240394539</ele>
        <time>2022-05-26T14:56:47Z</time>
      </trkpt>
      <trkpt lat="46.66707" lon="-1.9083">
        <ele>8.2451248743085</ele>
        <time>2022-05-26T14:56:56Z</time>
      </trkpt>
      <trkpt lat="46.6671" lon="-1.90762">
        <ele>10.246974679369</ele>
        <time>2022-05-26T14:57:05Z</time>
      </trkpt>
      <trkpt lat="46.66697" lon="-1.90707">
        <ele>8.2482731191631</ele>
        <time>2022-05-26T14:57:14Z</time>
      </trkpt>
      <trkpt lat="46.66683" lon="-1.90653">
        <ele>8.2495079590657</ele>
        <time>2022-05-26T14:57:24Z</time>
      </trkpt>
      <trkpt lat="46.66653" lon="-1.90624">
        <ele>6.2498247634857</ele>
        <time>2022-05-26T14:57:33Z</time>
      </trkpt>
      <trkpt lat="46.66618" lon="-1.90622">
        <ele>6.24935586243</ele>
        <time>2022-05-26T14:57:42Z</time>
      </trkpt>
      <trkpt lat="46.66574" lon="-1.90615">
        <ele>3.2488735641323</ele>
        <time>2022-05-26T14:57:51Z</time>
      </trkpt>
      <trkpt lat="46.66528" lon="-1.9062">
        <ele>0.248060563463</ele>
        <time>2022-05-26T14:58:00Z</time>
      </trkpt>
      <trkpt lat="46.66481" lon="-1.906">
        <ele>0.2478898752633</ele>
        <time>2022-05-26T14:58:10Z</time>
      </trkpt>
      <trkpt lat="46.66446" lon="-1.90595">
        <ele>2.2474678506097</ele>
        <time>2022-05-26T14:58:19Z</time>
      </trkpt>
      <trkpt lat="46.6643" lon="-1.90605">
        <ele>2.246985933203</ele>
        <time>2022-05-26T14:58:52Z</time>
      </trkpt>
      <trkpt lat="46.66394" lon="-1.90616">
        <ele>5.2461361217254</ele>
        <time>2022-05-26T14:59:01Z</time>
      </trkpt>
      <trkpt lat="46.66364" lon="-1.90643">
        <ele>7.2449998362568</ele>
        <time>2022-05-26T14:59:11Z</time>
      </trkpt>
      <trkpt lat="46.66341" lon="-1.9064">
        <ele>5.2447283101853</ele>
        <time>2022-05-26T14:59:21Z</time>
      </trkpt>
      <trkpt lat="46.66313" lon="-1.90633">
        <ele>4.2444806789283</ele>
        <time>2022-05-26T14:59:31Z</time>
      </trkpt>
      <trkpt lat="46.66288" lon="-1.9063">
        <ele>4.2441786289925</ele>
        <time>2022-05-26T14:59:40Z</time>
      </trkpt>
      <trkpt lat="46.66249" lon="-1.90625">
        <ele>3.2437399995668</ele>
        <time>2022-05-26T14:59:50Z</time>
      </trkpt>
      <trkpt lat="46.66207" lon="-1.90606">
        <ele>-1.7564053043371</ele>
        <time>2022-05-26T14:59:59Z</time>
      </trkpt>
      <trkpt lat="46.66166" lon="-1.90606">
        <ele>0.2429771258964</ele>
        <time>2022-05-26T15:00:08Z</time>
      </trkpt>
      <trkpt lat="46.66131" lon="-1.90573">
        <ele>-2.756695037092</ele>
        <time>2022-05-26T15:00:18Z</time>
      </trkpt>
      <trkpt lat="46.66115" lon="-1.90518">
        <ele>-3.7555117214775</ele>
        <time>2022-05-26T15:00:27Z</time>
      </trkpt>
      <trkpt lat="46.661" lon="-1.90465">
        <ele>-5.7543772094956</ele>
        <time>2022-05-26T15:00:36Z</time>
      </trkpt>
      <trkpt lat="46.66096" lon="-1.90407">
        <ele>-6.7529498461229</ele>
        <time>2022-05-26T15:00:45Z</time>
      </trkpt>
      <trkpt lat="46.66089" lon="-1.90354">
        <ele>-5.7516909268112</ele>
        <time>2022-05-26T15:00:54Z</time>
      </trkpt>
      <trkpt lat="46.66086" lon="-1.90309">
        <ele>-6.7505688273417</ele>
        <time>2022-05-26T15:01:04Z</time>
      </trkpt>
      <trkpt lat="46.66099" lon="-1.90264">
        <ele>-5.7492236285468</ele>
        <time>2022-05-26T15:01:13Z</time>
      </trkpt>
      <trkpt lat="46.66116" lon="-1.90213">
        <ele>-3.7476426436877</ele>
        <time>2022-05-26T15:01:22Z</time>
      </trkpt>
      <trkpt lat="46.66128" lon="-1.9016">
        <ele>-2.7460752064212</ele>
        <time>2022-05-26T15:01:31Z</time>
      </trkpt>
      <trkpt lat="46.66116" lon="-1.90101">
        <ele>-4.7447351082148</ele>
        <time>2022-05-26T15:01:40Z</time>
      </trkpt>
      <trkpt lat="46.66087" lon="-1.90052">
        <ele>-2.7439386851917</ele>
        <time>2022-05-26T15:01:49Z</time>
      </trkpt>
      <trkpt lat="46.66061" lon="-1.9">
        <ele>-2.7430104045589</ele>
        <time>2022-05-26T15:01:59Z</time>
      </trkpt>
      <trkpt lat="46.66028" lon="-1.89986">
        <ele>-2.743207554556</ele>
        <time>2022-05-26T15:02:09Z</time>
      </trkpt>
      <trkpt lat="46.65991" lon="-1.89959">
        <ele>-5.7430900582352</ele>
        <time>2022-05-26T15:02:19Z</time>
      </trkpt>
      <trkpt lat="46.6597" lon="-1.89947">
        <ele>-6.7431156907859</ele>
        <time>2022-05-26T15:02:28Z</time>
      </trkpt>
      <trkpt lat="46.65955" lon="-1.89934">
        <ele>-5.7430269606639</ele>
        <time>2022-05-26T15:02:47Z</time>
      </trkpt>
      <trkpt lat="46.65911" lon="-1.89917">
        <ele>-5.7433087172648</ele>
        <time>2022-05-26T15:02:56Z</time>
      </trkpt>
      <trkpt lat="46.65861" lon="-1.89887">
        <ele>-8.7433479795859</ele>
        <time>2022-05-26T15:03:06Z</time>
      </trkpt>
      <trkpt lat="46.65822" lon="-1.89853">
        <ele>-10.743126675901</ele>
        <time>2022-05-26T15:03:15Z</time>
      </trkpt>
      <trkpt lat="46.6578" lon="-1.89831">
        <ele>-10.743264624148</ele>
        <time>2022-05-26T15:03:24Z</time>
      </trkpt>
      <trkpt lat="46.65743" lon="-1.89805">
        <ele>-10.74321687139</ele>
        <time>2022-05-26T15:03:33Z</time>
      </trkpt>
      <trkpt lat="46.65704" lon="-1.89777">
        <ele>-10.743139122689</ele>
        <time>2022-05-26T15:03:42Z</time>
      </trkpt>
      <trkpt lat="46.65669" lon="-1.89755">
        <ele>-11.743159383408</ele>
        <time>2022-05-26T15:03:51Z</time>
      </trkpt>
      <trkpt lat="46.65631" lon="-1.8973">
        <ele>-10.743166555501</ele>
        <time>2022-05-26T15:04:00Z</time>
      </trkpt>
      <trkpt lat="46.65594" lon="-1.89706">
        <ele>-11.743170058472</ele>
        <time>2022-05-26T15:04:09Z</time>
      </trkpt>
      <trkpt lat="46.65559" lon="-1.89684">
        <ele>-10.743187834163</ele>
        <time>2022-05-26T15:04:18Z</time>
      </trkpt>
      <trkpt lat="46.65519" lon="-1.89658">
        <ele>-9.743207087723</ele>
        <time>2022-05-26T15:04:27Z</time>
      </trkpt>
      <trkpt lat="46.65482" lon="-1.89633">
        <ele>-8.7431925318295</ele>
        <time>2022-05-26T15:04:36Z</time>
      </trkpt>
      <trkpt lat="46.65449" lon="-1.89621">
        <ele>-7.7434447274955</ele>
        <time>2022-05-26T15:04:45Z</time>
      </trkpt>
      <trkpt lat="46.65417" lon="-1.89653">
        <ele>-3.7447756162342</ele>
        <time>2022-05-26T15:04:55Z</time>
      </trkpt>
      <trkpt lat="46.6539" lon="-1.89698">
        <ele>-0.74632895442588</ele>
        <time>2022-05-26T15:05:05Z</time>
      </trkpt>
      <trkpt lat="46.65366" lon="-1.89727">
        <ele>2.2525645671411</ele>
        <time>2022-05-26T15:05:14Z</time>
      </trkpt>
      <trkpt lat="46.65337" lon="-1.89756">
        <ele>7.2513812139934</ele>
        <time>2022-05-26T15:05:24Z</time>
      </trkpt>
      <trkpt lat="46.6531" lon="-1.89774">
        <ele>7.2505062853476</ele>
        <time>2022-05-26T15:05:33Z</time>
      </trkpt>
      <trkpt lat="46.65285" lon="-1.89744">
        <ele>7.2508388651426</ele>
        <time>2022-05-26T15:05:43Z</time>
      </trkpt>
      <trkpt lat="46.65256" lon="-1.89715">
        <ele>5.2510568267773</ele>
        <time>2022-05-26T15:05:53Z</time>
      </trkpt>
      <trkpt lat="46.6522" lon="-1.89714">
        <ele>3.2504876806702</ele>
        <time>2022-05-26T15:06:02Z</time>
      </trkpt>
      <trkpt lat="46.65186" lon="-1.89743">
        <ele>3.2492113966993</ele>
        <time>2022-05-26T15:06:11Z</time>
      </trkpt>
      <trkpt lat="46.65157" lon="-1.89769">
        <ele>7.2481262785593</ele>
        <time>2022-05-26T15:06:20Z</time>
      </trkpt>
      <trkpt lat="46.65127" lon="-1.8976">
        <ele>6.2478490228557</ele>
        <time>2022-05-26T15:06:29Z</time>
      </trkpt>
      <trkpt lat="46.65099" lon="-1.89727">
        <ele>7.2481861160983</ele>
        <time>2022-05-26T15:06:39Z</time>
      </trkpt>
      <trkpt lat="46.65077" lon="-1.8971">
        <ele>8.2482217959009</ele>
        <time>2022-05-26T15:06:48Z</time>
      </trkpt>
      <trkpt lat="46.65062" lon="-1.89692">
        <ele>8.2484122338213</ele>
        <time>2022-05-26T15:06:57Z</time>
      </trkpt>
      <trkpt lat="46.65054" lon="-1.89671">
        <ele>7.2487866613071</ele>
        <time>2022-05-26T15:07:11Z</time>
      </trkpt>
      <trkpt lat="46.65034" lon="-1.89643">
        <ele>5.2491380904597</ele>
        <time>2022-05-26T15:07:20Z</time>
      </trkpt>
      <trkpt lat="46.65008" lon="-1.89598">
        <ele>4.2497831536814</ele>
        <time>2022-05-26T15:07:30Z</time>
      </trkpt>
      <trkpt lat="46.64993" lon="-1.89548">
        <ele>3.2507183389765</ele>
        <time>2022-05-26T15:07:39Z</time>
      </trkpt>
      <trkpt lat="46.64978" lon="-1.89497">
        <ele>1.25171013075</ele>
        <time>2022-05-26T15:07:48Z</time>
      </trkpt>
      <trkpt lat="46.64957" lon="-1.89453">
        <ele>3.252404925918</ele>
        <time>2022-05-26T15:07:57Z</time>
      </trkpt>
      <trkpt lat="46.64941" lon="-1.89404">
        <ele>4.2533146826833</ele>
        <time>2022-05-26T15:08:06Z</time>
      </trkpt>
      <trkpt lat="46.64926" lon="-1.8936">
        <ele>5.2541045171126</ele>
        <time>2022-05-26T15:08:15Z</time>
      </trkpt>
      <trkpt lat="46.64906" lon="-1.89324">
        <ele>4.2546069417626</ele>
        <time>2022-05-26T15:08:24Z</time>
      </trkpt>
      <trkpt lat="46.64887" lon="-1.89334">
        <ele>5.2540646613775</ele>
        <time>2022-05-26T15:08:33Z</time>
      </trkpt>
      <trkpt lat="46.64854" lon="-1.89348">
        <ele>9.2531537829921</ele>
        <time>2022-05-26T15:08:43Z</time>
      </trkpt>
      <trkpt lat="46.64824" lon="-1.89377">
        <ele>11.251948072763</ele>
        <time>2022-05-26T15:08:52Z</time>
      </trkpt>
      <trkpt lat="46.64811" lon="-1.89406">
        <ele>13.251067062316</ele>
        <time>2022-05-26T15:09:01Z</time>
      </trkpt>
      <trkpt lat="46.64787" lon="-1.89442">
        <ele>14.249786180888</ele>
        <time>2022-05-26T15:09:10Z</time>
      </trkpt>
      <trkpt lat="46.64753" lon="-1.89453">
        <ele>14.248974954004</ele>
        <time>2022-05-26T15:09:19Z</time>
      </trkpt>
      <trkpt lat="46.64713" lon="-1.89438">
        <ele>14.248641462171</ele>
        <time>2022-05-26T15:09:28Z</time>
      </trkpt>
      <trkpt lat="46.64687" lon="-1.89429">
        <ele>14.248403899855</ele>
        <time>2022-05-26T15:09:37Z</time>
      </trkpt>
      <trkpt lat="46.64654" lon="-1.89408">
        <ele>12.248347528083</ele>
        <time>2022-05-26T15:09:47Z</time>
      </trkpt>
      <trkpt lat="46.6464" lon="-1.89382">
        <ele>10.248719665609</ele>
        <time>2022-05-26T15:09:57Z</time>
      </trkpt>
      <trkpt lat="46.646" lon="-1.89364">
        <ele>7.2484547711007</ele>
        <time>2022-05-26T15:10:07Z</time>
      </trkpt>
      <trkpt lat="46.64567" lon="-1.89348">
        <ele>5.2482579260671</ele>
        <time>2022-05-26T15:10:17Z</time>
      </trkpt>
      <trkpt lat="46.64527" lon="-1.89363">
        <ele>6.2472484786922</ele>
        <time>2022-05-26T15:10:26Z</time>
      </trkpt>
      <trkpt lat="46.64493" lon="-1.89389">
        <ele>7.2460644800146</ele>
        <time>2022-05-26T15:10:35Z</time>
      </trkpt>
      <trkpt lat="46.64455" lon="-1.89402">
        <ele>6.2450979699616</ele>
        <time>2022-05-26T15:10:44Z</time>
      </trkpt>
      <trkpt lat="46.6442" lon="-1.89372">
        <ele>5.2452091735785</ele>
        <time>2022-05-26T15:10:53Z</time>
      </trkpt>
      <trkpt lat="46.64381" lon="-1.89356">
        <ele>6.2449194653849</ele>
        <time>2022-05-26T15:11:03Z</time>
      </trkpt>
      <trkpt lat="46.64341" lon="-1.8937">
        <ele>5.2439192330566</ele>
        <time>2022-05-26T15:11:12Z</time>
      </trkpt>
      <trkpt lat="46.64303" lon="-1.8939">
        <ele>6.2428155216797</ele>
        <time>2022-05-26T15:11:21Z</time>
      </trkpt>
      <trkpt lat="46.64287" lon="-1.89436">
        <ele>7.2414823951456</ele>
        <time>2022-05-26T15:11:30Z</time>
      </trkpt>
      <trkpt lat="46.64283" lon="-1.8948">
        <ele>7.2404087471076</ele>
        <time>2022-05-26T15:11:39Z</time>
      </trkpt>
      <trkpt lat="46.64268" lon="-1.89477">
        <ele>9.2402341954297</ele>
        <time>2022-05-26T15:13:34Z</time>
      </trkpt>
      <trkpt lat="46.64237" lon="-1.89465">
        <ele>10.239962200714</ele>
        <time>2022-05-26T15:13:43Z</time>
      </trkpt>
      <trkpt lat="46.64199" lon="-1.89454">
        <ele>13.239583503191</ele>
        <time>2022-05-26T15:13:52Z</time>
      </trkpt>
      <trkpt lat="46.64156" lon="-1.89436">
        <ele>15.239272927863</ele>
        <time>2022-05-26T15:14:02Z</time>
      </trkpt>
      <trkpt lat="46.64112" lon="-1.89424">
        <ele>16.238787362391</ele>
        <time>2022-05-26T15:14:11Z</time>
      </trkpt>
      <trkpt lat="46.64067" lon="-1.89417">
        <ele>16.238188060842</ele>
        <time>2022-05-26T15:14:20Z</time>
      </trkpt>
      <trkpt lat="46.64025" lon="-1.89425">
        <ele>13.237299389997</ele>
        <time>2022-05-26T15:14:29Z</time>
      </trkpt>
      <trkpt lat="46.63993" lon="-1.89437">
        <ele>11.236494087224</ele>
        <time>2022-05-26T15:14:39Z</time>
      </trkpt>
      <trkpt lat="46.6397" lon="-1.89447">
        <ele>8.2358827590269</ele>
        <time>2022-05-26T15:14:49Z</time>
      </trkpt>
      <trkpt lat="46.63946" lon="-1.89443">
        <ele>6.235564761392</ele>
        <time>2022-05-26T15:14:58Z</time>
      </trkpt>
      <trkpt lat="46.63917" lon="-1.89433">
        <ele>4.2352996548239</ele>
        <time>2022-05-26T15:15:07Z</time>
      </trkpt>
      <trkpt lat="46.63887" lon="-1.89397">
        <ele>5.2355930045936</ele>
        <time>2022-05-26T15:15:17Z</time>
      </trkpt>
      <trkpt lat="46.63863" lon="-1.89361">
        <ele>7.2359722970588</ele>
        <time>2022-05-26T15:15:26Z</time>
      </trkpt>
      <trkpt lat="46.63838" lon="-1.89325">
        <ele>7.2363557473556</ele>
        <time>2022-05-26T15:15:35Z</time>
      </trkpt>
      <trkpt lat="46.63811" lon="-1.89285">
        <ele>8.2367795819346</ele>
        <time>2022-05-26T15:15:44Z</time>
      </trkpt>
      <trkpt lat="46.63801" lon="-1.89259">
        <ele>8.2371742250941</ele>
        <time>2022-05-26T15:15:53Z</time>
      </trkpt>
      <trkpt lat="46.63771" lon="-1.89231">
        <ele>7.2372638005809</ele>
        <time>2022-05-26T15:16:02Z</time>
      </trkpt>
      <trkpt lat="46.63728" lon="-1.89204">
        <ele>6.2371433495789</ele>
        <time>2022-05-26T15:16:12Z</time>
      </trkpt>
      <trkpt lat="46.63714" lon="-1.89195">
        <ele>6.2370881862601</ele>
        <time>2022-05-26T15:17:32Z</time>
      </trkpt>
      <trkpt lat="46.63689" lon="-1.89178">
        <ele>5.2370306624804</ele>
        <time>2022-05-26T15:17:41Z</time>
      </trkpt>
      <trkpt lat="46.63667" lon="-1.8916">
        <ele>3.2370259127136</ele>
        <time>2022-05-26T15:17:50Z</time>
      </trkpt>
      <trkpt lat="46.63641" lon="-1.89141">
        <ele>2.2369925530003</ele>
        <time>2022-05-26T15:18:00Z</time>
      </trkpt>
      <trkpt lat="46.63618" lon="-1.89141">
        <ele>1.2366053992453</ele>
        <time>2022-05-26T15:18:09Z</time>
      </trkpt>
      <trkpt lat="46.63608" lon="-1.89121">
        <ele>3.2368642526688</ele>
        <time>2022-05-26T15:19:20Z</time>
      </trkpt>
      <trkpt lat="46.63594" lon="-1.89107">
        <ele>0.23694066690687</ele>
        <time>2022-05-26T15:19:34Z</time>
      </trkpt>
      <trkpt lat="46.63563" lon="-1.89085">
        <ele>4.2368656789197</ele>
        <time>2022-05-26T15:19:44Z</time>
      </trkpt>
      <trkpt lat="46.63533" lon="-1.89051">
        <ele>7.2370666291522</ele>
        <time>2022-05-26T15:19:53Z</time>
      </trkpt>
      <trkpt lat="46.63511" lon="-1.89">
        <ele>9.2377891073117</ele>
        <time>2022-05-26T15:20:02Z</time>
      </trkpt>
      <trkpt lat="46.63488" lon="-1.8895">
        <ele>10.238451063682</ele>
        <time>2022-05-26T15:20:11Z</time>
      </trkpt>
      <trkpt lat="46.63459" lon="-1.88899">
        <ele>9.2390449166887</ele>
        <time>2022-05-26T15:20:20Z</time>
      </trkpt>
      <trkpt lat="46.63446" lon="-1.88851">
        <ele>10.239850163475</ele>
        <time>2022-05-26T15:20:29Z</time>
      </trkpt>
      <trkpt lat="46.63423" lon="-1.88798">
        <ele>13.240584176057</ele>
        <time>2022-05-26T15:20:39Z</time>
      </trkpt>
      <trkpt lat="46.63401" lon="-1.88752">
        <ele>13.241168347249</ele>
        <time>2022-05-26T15:20:48Z</time>
      </trkpt>
      <trkpt lat="46.63361" lon="-1.88722">
        <ele>10.2411002577</ele>
        <time>2022-05-26T15:20:58Z</time>
      </trkpt>
      <trkpt lat="46.63323" lon="-1.88686">
        <ele>8.2411744329112</ele>
        <time>2022-05-26T15:21:07Z</time>
      </trkpt>
      <trkpt lat="46.63294" lon="-1.88628">
        <ele>10.241889712855</ele>
        <time>2022-05-26T15:21:16Z</time>
      </trkpt>
      <trkpt lat="46.63267" lon="-1.88574">
        <ele>12.24254944047</ele>
        <time>2022-05-26T15:21:25Z</time>
      </trkpt>
      <trkpt lat="46.63231" lon="-1.88535">
        <ele>12.242718205398</ele>
        <time>2022-05-26T15:21:35Z</time>
      </trkpt>
      <trkpt lat="46.63208" lon="-1.88481">
        <ele>13.243422090145</ele>
        <time>2022-05-26T15:21:45Z</time>
      </trkpt>
      <trkpt lat="46.63179" lon="-1.88428">
        <ele>14.244010516328</ele>
        <time>2022-05-26T15:21:54Z</time>
      </trkpt>
      <trkpt lat="46.63173" lon="-1.88391">
        <ele>16.244697240459</ele>
        <time>2022-05-26T15:22:03Z</time>
      </trkpt>
      <trkpt lat="46.63178" lon="-1.88368">
        <ele>14.245266766774</ele>
        <time>2022-05-26T15:22:45Z</time>
      </trkpt>
      <trkpt lat="46.63176" lon="-1.88322">
        <ele>13.246185751308</ele>
        <time>2022-05-26T15:22:54Z</time>
      </trkpt>
      <trkpt lat="46.63175" lon="-1.88272">
        <ele>15.247221724796</ele>
        <time>2022-05-26T15:23:03Z</time>
      </trkpt>
      <trkpt lat="46.6317" lon="-1.88229">
        <ele>15.248027513763</ele>
        <time>2022-05-26T15:23:13Z</time>
      </trkpt>
      <trkpt lat="46.63167" lon="-1.88203">
        <ele>14.248523039601</ele>
        <time>2022-05-26T15:23:22Z</time>
      </trkpt>
      <trkpt lat="46.63162" lon="-1.88163">
        <ele>12.249272506247</ele>
        <time>2022-05-26T15:23:31Z</time>
      </trkpt>
      <trkpt lat="46.63158" lon="-1.8814">
        <ele>11.249678226688</ele>
        <time>2022-05-26T15:23:41Z</time>
      </trkpt>
      <trkpt lat="46.63167" lon="-1.88105">
        <ele>12.250583287595</ele>
        <time>2022-05-26T15:23:50Z</time>
      </trkpt>
      <trkpt lat="46.63173" lon="-1.88064">
        <ele>17.251576800753</ele>
        <time>2022-05-26T15:23:59Z</time>
      </trkpt>
      <trkpt lat="46.63179" lon="-1.88009">
        <ele>19.25284492905</ele>
        <time>2022-05-26T15:24:08Z</time>
      </trkpt>
      <trkpt lat="46.63204" lon="-1.87961">
        <ele>21.254342606815</ele>
        <time>2022-05-26T15:24:18Z</time>
      </trkpt>
      <trkpt lat="46.63234" lon="-1.87928">
        <ele>20.25560981313</ele>
        <time>2022-05-26T15:24:28Z</time>
      </trkpt>
      <trkpt lat="46.63268" lon="-1.87929">
        <ele>18.256255758742</ele>
        <time>2022-05-26T15:24:37Z</time>
      </trkpt>
      <trkpt lat="46.63303" lon="-1.87934">
        <ele>19.256824696938</ele>
        <time>2022-05-26T15:24:46Z</time>
      </trkpt>
      <trkpt lat="46.63337" lon="-1.87939">
        <ele>18.257371701289</ele>
        <time>2022-05-26T15:24:55Z</time>
      </trkpt>
      <trkpt lat="46.63373" lon="-1.87943">
        <ele>19.257978034106</ele>
        <time>2022-05-26T15:25:05Z</time>
      </trkpt>
      <trkpt lat="46.63408" lon="-1.87944">
        <ele>21.258639530131</ele>
        <time>2022-05-26T15:25:15Z</time>
      </trkpt>
      <trkpt lat="46.63441" lon="-1.8795">
        <ele>22.259135815052</ele>
        <time>2022-05-26T15:25:24Z</time>
      </trkpt>
      <trkpt lat="46.6346" lon="-1.87935">
        <ele>21.259833950074</ele>
        <time>2022-05-26T15:25:33Z</time>
      </trkpt>
      <trkpt lat="46.63475" lon="-1.8789">
        <ele>22.261091160366</ele>
        <time>2022-05-26T15:25:42Z</time>
      </trkpt>
      <trkpt lat="46.63486" lon="-1.87835">
        <ele>25.262499689471</ele>
        <time>2022-05-26T15:25:52Z</time>
      </trkpt>
      <trkpt lat="46.63493" lon="-1.87781">
        <ele>29.263797246144</ele>
        <time>2022-05-26T15:26:01Z</time>
      </trkpt>
      <trkpt lat="46.63498" lon="-1.87725">
        <ele>28.265083647715</ele>
        <time>2022-05-26T15:26:11Z</time>
      </trkpt>
      <trkpt lat="46.63526" lon="-1.87704">
        <ele>29.266099276833</ele>
        <time>2022-05-26T15:26:20Z</time>
      </trkpt>
      <trkpt lat="46.63559" lon="-1.87712">
        <ele>28.266588057086</ele>
        <time>2022-05-26T15:26:29Z</time>
      </trkpt>
      <trkpt lat="46.63592" lon="-1.87715">
        <ele>27.267171151711</ele>
        <time>2022-05-26T15:26:38Z</time>
      </trkpt>
      <trkpt lat="46.63625" lon="-1.87721">
        <ele>28.26769180773</ele>
        <time>2022-05-26T15:26:47Z</time>
      </trkpt>
      <trkpt lat="46.63658" lon="-1.87735">
        <ele>28.268012413599</ele>
        <time>2022-05-26T15:26:56Z</time>
      </trkpt>
      <trkpt lat="46.6367" lon="-1.87708">
        <ele>26.268844201135</ele>
        <time>2022-05-26T15:27:05Z</time>
      </trkpt>
      <trkpt lat="46.63683" lon="-1.87684">
        <ele>24.269636006916</ele>
        <time>2022-05-26T15:27:14Z</time>
      </trkpt>
      <trkpt lat="46.63677" lon="-1.87671">
        <ele>21.269809265134</ele>
        <time>2022-05-26T15:27:33Z</time>
      </trkpt>
      <trkpt lat="46.63677" lon="-1.87671">
        <ele>21.269809265134</ele>
        <time>2022-05-26T15:27:34Z</time>
      </trkpt>
    </trkseg>
  </trk>
</gpx>